<?xml version="1.0" encoding="UTF-8" standalone="no" ?>
<gpx xmlns="http://www.topografix.com/GPX/1/1" xmlns:xsi="http://www.w3.org/2001/XMLSchema-instance" xsi:schemaLocation="http://www.topografix.com/GPX/1/1 http://www.topografix.com/GPX/1/1/gpx.xsd" version="1.1" creator="VisuGPX - https://www.visugpx.com">
  <metadata>
    <name>VOK Pujaudran pont des Mascarades 9Km</name>
  </metadata>
  <wpt lat="43.59026" lon="1.15319">
    <ele>194</ele>
    <name><![CDATA[parking cimetière]]></name>
  </wpt>
  <wpt lat="43.58395" lon="1.16114">
    <ele>250</ele>
    <name><![CDATA[croisée de chemins ?]]></name>
  </wpt>
  <wpt lat="43.58314" lon="1.17066">
    <ele>237</ele>
    <name><![CDATA[photo2]]></name>
  </wpt>
  <wpt lat="43.57911" lon="1.16929">
    <ele>241</ele>
    <name><![CDATA[a droite chemin le plus a droite]]></name>
  </wpt>
  <wpt lat="43.58033" lon="1.15215">
    <ele>282</ele>
    <name><![CDATA[photo3]]></name>
  </wpt>
  <wpt lat="43.59018" lon="1.15282">
    <ele>294</ele>
    <name><![CDATA[Parking cimetière]]></name>
  </wpt>
  <trk>
    <name><![CDATA[VOK Pujaudran pont des Mascarades 9Km]]></name>
    <trkseg>
      <trkpt lat="43.59026" lon="1.15319">
        <ele>194</ele>
        <time>2019-10-27T13:44:21+01:00</time>
      </trkpt>
      <trkpt lat="43.59024" lon="1.15332">
        <ele>195</ele>
        <time>2019-10-27T13:44:32+01:00</time>
      </trkpt>
      <trkpt lat="43.59022" lon="1.15345">
        <ele>196</ele>
        <time>2019-10-27T13:44:43+01:00</time>
      </trkpt>
      <trkpt lat="43.59016" lon="1.15357">
        <ele>200</ele>
        <time>2019-10-27T13:44:52+01:00</time>
      </trkpt>
      <trkpt lat="43.59015" lon="1.1537">
        <ele>203</ele>
        <time>2019-10-27T13:44:59+01:00</time>
      </trkpt>
      <trkpt lat="43.59014" lon="1.15383">
        <ele>206</ele>
        <time>2019-10-27T13:45:04+01:00</time>
      </trkpt>
      <trkpt lat="43.59009" lon="1.15397">
        <ele>209</ele>
        <time>2019-10-27T13:45:10+01:00</time>
      </trkpt>
      <trkpt lat="43.59004" lon="1.15409">
        <ele>214</ele>
        <time>2019-10-27T13:45:17+01:00</time>
      </trkpt>
      <trkpt lat="43.58999" lon="1.15419">
        <ele>217</ele>
        <time>2019-10-27T13:45:22+01:00</time>
      </trkpt>
      <trkpt lat="43.58995" lon="1.15432">
        <ele>222</ele>
        <time>2019-10-27T13:45:27+01:00</time>
      </trkpt>
      <trkpt lat="43.58994" lon="1.15446">
        <ele>227</ele>
        <time>2019-10-27T13:45:33+01:00</time>
      </trkpt>
      <trkpt lat="43.58993" lon="1.15458">
        <ele>231</ele>
        <time>2019-10-27T13:45:39+01:00</time>
      </trkpt>
      <trkpt lat="43.58988" lon="1.1547">
        <ele>235</ele>
        <time>2019-10-27T13:45:45+01:00</time>
      </trkpt>
      <trkpt lat="43.5898" lon="1.15478">
        <ele>239</ele>
        <time>2019-10-27T13:45:51+01:00</time>
      </trkpt>
      <trkpt lat="43.58976" lon="1.15491">
        <ele>243</ele>
        <time>2019-10-27T13:45:58+01:00</time>
      </trkpt>
      <trkpt lat="43.5897" lon="1.15502">
        <ele>246</ele>
        <time>2019-10-27T13:46:03+01:00</time>
      </trkpt>
      <trkpt lat="43.58968" lon="1.15516">
        <ele>250</ele>
        <time>2019-10-27T13:46:09+01:00</time>
      </trkpt>
      <trkpt lat="43.58966" lon="1.15529">
        <ele>253</ele>
        <time>2019-10-27T13:46:16+01:00</time>
      </trkpt>
      <trkpt lat="43.58959" lon="1.15542">
        <ele>257</ele>
        <time>2019-10-27T13:46:22+01:00</time>
      </trkpt>
      <trkpt lat="43.58954" lon="1.15554">
        <ele>261</ele>
        <time>2019-10-27T13:46:26+01:00</time>
      </trkpt>
      <trkpt lat="43.58953" lon="1.15568">
        <ele>264</ele>
        <time>2019-10-27T13:46:32+01:00</time>
      </trkpt>
      <trkpt lat="43.5895" lon="1.15582">
        <ele>269</ele>
        <time>2019-10-27T13:46:38+01:00</time>
      </trkpt>
      <trkpt lat="43.58945" lon="1.15594">
        <ele>276</ele>
        <time>2019-10-27T13:46:44+01:00</time>
      </trkpt>
      <trkpt lat="43.58943" lon="1.15606">
        <ele>279</ele>
        <time>2019-10-27T13:46:51+01:00</time>
      </trkpt>
      <trkpt lat="43.58941" lon="1.15618">
        <ele>280</ele>
        <time>2019-10-27T13:46:56+01:00</time>
      </trkpt>
      <trkpt lat="43.58939" lon="1.15632">
        <ele>281</ele>
        <time>2019-10-27T13:47:02+01:00</time>
      </trkpt>
      <trkpt lat="43.58937" lon="1.15645">
        <ele>282</ele>
        <time>2019-10-27T13:47:09+01:00</time>
      </trkpt>
      <trkpt lat="43.58935" lon="1.1566">
        <ele>283</ele>
        <time>2019-10-27T13:47:17+01:00</time>
      </trkpt>
      <trkpt lat="43.58934" lon="1.15673">
        <ele>283</ele>
        <time>2019-10-27T13:47:24+01:00</time>
      </trkpt>
      <trkpt lat="43.58932" lon="1.15686">
        <ele>283</ele>
        <time>2019-10-27T13:47:32+01:00</time>
      </trkpt>
      <trkpt lat="43.5893" lon="1.15699">
        <ele>280</ele>
        <time>2019-10-27T13:47:39+01:00</time>
      </trkpt>
      <trkpt lat="43.58928" lon="1.15711">
        <ele>278</ele>
        <time>2019-10-27T13:47:45+01:00</time>
      </trkpt>
      <trkpt lat="43.58925" lon="1.15724">
        <ele>277</ele>
        <time>2019-10-27T13:47:52+01:00</time>
      </trkpt>
      <trkpt lat="43.58923" lon="1.15739">
        <ele>274</ele>
        <time>2019-10-27T13:47:59+01:00</time>
      </trkpt>
      <trkpt lat="43.58923" lon="1.15752">
        <ele>274</ele>
        <time>2019-10-27T13:48:05+01:00</time>
      </trkpt>
      <trkpt lat="43.58922" lon="1.15765">
        <ele>275</ele>
        <time>2019-10-27T13:48:10+01:00</time>
      </trkpt>
      <trkpt lat="43.5892" lon="1.15778">
        <ele>277</ele>
        <time>2019-10-27T13:48:16+01:00</time>
      </trkpt>
      <trkpt lat="43.58916" lon="1.15791">
        <ele>282</ele>
        <time>2019-10-27T13:48:57+01:00</time>
      </trkpt>
      <trkpt lat="43.58914" lon="1.15805">
        <ele>281</ele>
        <time>2019-10-27T13:49:03+01:00</time>
      </trkpt>
      <trkpt lat="43.58912" lon="1.15818">
        <ele>280</ele>
        <time>2019-10-27T13:49:09+01:00</time>
      </trkpt>
      <trkpt lat="43.5891" lon="1.1583">
        <ele>279</ele>
        <time>2019-10-27T13:49:17+01:00</time>
      </trkpt>
      <trkpt lat="43.58912" lon="1.15843">
        <ele>277</ele>
        <time>2019-10-27T13:49:24+01:00</time>
      </trkpt>
      <trkpt lat="43.58912" lon="1.15857">
        <ele>277</ele>
        <time>2019-10-27T13:49:31+01:00</time>
      </trkpt>
      <trkpt lat="43.58913" lon="1.15871">
        <ele>277</ele>
        <time>2019-10-27T13:49:38+01:00</time>
      </trkpt>
      <trkpt lat="43.5891" lon="1.15885">
        <ele>276</ele>
        <time>2019-10-27T13:49:44+01:00</time>
      </trkpt>
      <trkpt lat="43.58908" lon="1.15897">
        <ele>273</ele>
        <time>2019-10-27T13:49:51+01:00</time>
      </trkpt>
      <trkpt lat="43.58909" lon="1.1591">
        <ele>272</ele>
        <time>2019-10-27T13:49:58+01:00</time>
      </trkpt>
      <trkpt lat="43.58911" lon="1.15923">
        <ele>271</ele>
        <time>2019-10-27T13:50:05+01:00</time>
      </trkpt>
      <trkpt lat="43.58912" lon="1.15936">
        <ele>270</ele>
        <time>2019-10-27T13:50:11+01:00</time>
      </trkpt>
      <trkpt lat="43.58914" lon="1.15949">
        <ele>269</ele>
        <time>2019-10-27T13:50:16+01:00</time>
      </trkpt>
      <trkpt lat="43.58912" lon="1.15962">
        <ele>271</ele>
        <time>2019-10-27T13:50:21+01:00</time>
      </trkpt>
      <trkpt lat="43.5891" lon="1.15974">
        <ele>273</ele>
        <time>2019-10-27T13:50:27+01:00</time>
      </trkpt>
      <trkpt lat="43.58908" lon="1.15988">
        <ele>275</ele>
        <time>2019-10-27T13:50:33+01:00</time>
      </trkpt>
      <trkpt lat="43.58908" lon="1.16001">
        <ele>272</ele>
        <time>2019-10-27T13:50:42+01:00</time>
      </trkpt>
      <trkpt lat="43.5891" lon="1.16013">
        <ele>269</ele>
        <time>2019-10-27T13:50:51+01:00</time>
      </trkpt>
      <trkpt lat="43.5891" lon="1.16026">
        <ele>268</ele>
        <time>2019-10-27T13:50:58+01:00</time>
      </trkpt>
      <trkpt lat="43.58912" lon="1.16039">
        <ele>267</ele>
        <time>2019-10-27T13:51:05+01:00</time>
      </trkpt>
      <trkpt lat="43.58913" lon="1.16053">
        <ele>266</ele>
        <time>2019-10-27T13:51:11+01:00</time>
      </trkpt>
      <trkpt lat="43.58914" lon="1.16065">
        <ele>265</ele>
        <time>2019-10-27T13:51:16+01:00</time>
      </trkpt>
      <trkpt lat="43.58915" lon="1.16078">
        <ele>265</ele>
        <time>2019-10-27T13:51:22+01:00</time>
      </trkpt>
      <trkpt lat="43.58915" lon="1.16092">
        <ele>267</ele>
        <time>2019-10-27T13:51:28+01:00</time>
      </trkpt>
      <trkpt lat="43.58915" lon="1.16106">
        <ele>269</ele>
        <time>2019-10-27T13:51:35+01:00</time>
      </trkpt>
      <trkpt lat="43.58915" lon="1.1612">
        <ele>269</ele>
        <time>2019-10-27T13:51:42+01:00</time>
      </trkpt>
      <trkpt lat="43.58915" lon="1.16133">
        <ele>268</ele>
        <time>2019-10-27T13:51:48+01:00</time>
      </trkpt>
      <trkpt lat="43.58914" lon="1.16147">
        <ele>269</ele>
        <time>2019-10-27T13:51:55+01:00</time>
      </trkpt>
      <trkpt lat="43.58915" lon="1.1616">
        <ele>271</ele>
        <time>2019-10-27T13:52:00+01:00</time>
      </trkpt>
      <trkpt lat="43.58915" lon="1.16173">
        <ele>270</ele>
        <time>2019-10-27T13:52:06+01:00</time>
      </trkpt>
      <trkpt lat="43.58917" lon="1.16186">
        <ele>267</ele>
        <time>2019-10-27T13:52:15+01:00</time>
      </trkpt>
      <trkpt lat="43.58916" lon="1.162">
        <ele>267</ele>
        <time>2019-10-27T13:52:25+01:00</time>
      </trkpt>
      <trkpt lat="43.58914" lon="1.16212">
        <ele>266</ele>
        <time>2019-10-27T13:52:32+01:00</time>
      </trkpt>
      <trkpt lat="43.58916" lon="1.16224">
        <ele>264</ele>
        <time>2019-10-27T13:52:38+01:00</time>
      </trkpt>
      <trkpt lat="43.58916" lon="1.16239">
        <ele>262</ele>
        <time>2019-10-27T13:52:46+01:00</time>
      </trkpt>
      <trkpt lat="43.58918" lon="1.16253">
        <ele>259</ele>
        <time>2019-10-27T13:52:52+01:00</time>
      </trkpt>
      <trkpt lat="43.5892" lon="1.16267">
        <ele>257</ele>
        <time>2019-10-27T13:52:58+01:00</time>
      </trkpt>
      <trkpt lat="43.58922" lon="1.16281">
        <ele>256</ele>
        <time>2019-10-27T13:53:05+01:00</time>
      </trkpt>
      <trkpt lat="43.58922" lon="1.16296">
        <ele>254</ele>
        <time>2019-10-27T13:53:12+01:00</time>
      </trkpt>
      <trkpt lat="43.58921" lon="1.16311">
        <ele>253</ele>
        <time>2019-10-27T13:53:19+01:00</time>
      </trkpt>
      <trkpt lat="43.5892" lon="1.16323">
        <ele>253</ele>
        <time>2019-10-27T13:53:27+01:00</time>
      </trkpt>
      <trkpt lat="43.58919" lon="1.16337">
        <ele>254</ele>
        <time>2019-10-27T13:53:37+01:00</time>
      </trkpt>
      <trkpt lat="43.58912" lon="1.16344">
        <ele>253</ele>
        <time>2019-10-27T13:53:45+01:00</time>
      </trkpt>
      <trkpt lat="43.58913" lon="1.16357">
        <ele>253</ele>
        <time>2019-10-27T13:53:53+01:00</time>
      </trkpt>
      <trkpt lat="43.58915" lon="1.1637">
        <ele>251</ele>
        <time>2019-10-27T13:54:02+01:00</time>
      </trkpt>
      <trkpt lat="43.58919" lon="1.16382">
        <ele>250</ele>
        <time>2019-10-27T13:54:11+01:00</time>
      </trkpt>
      <trkpt lat="43.58923" lon="1.16394">
        <ele>250</ele>
        <time>2019-10-27T13:54:17+01:00</time>
      </trkpt>
      <trkpt lat="43.58927" lon="1.16407">
        <ele>249</ele>
        <time>2019-10-27T13:54:23+01:00</time>
      </trkpt>
      <trkpt lat="43.5893" lon="1.16419">
        <ele>249</ele>
        <time>2019-10-27T13:54:29+01:00</time>
      </trkpt>
      <trkpt lat="43.58933" lon="1.16433">
        <ele>250</ele>
        <time>2019-10-27T13:54:34+01:00</time>
      </trkpt>
      <trkpt lat="43.58931" lon="1.16446">
        <ele>248</ele>
        <time>2019-10-27T13:54:40+01:00</time>
      </trkpt>
      <trkpt lat="43.58931" lon="1.1646">
        <ele>245</ele>
        <time>2019-10-27T13:54:49+01:00</time>
      </trkpt>
      <trkpt lat="43.58933" lon="1.16473">
        <ele>243</ele>
        <time>2019-10-27T13:54:56+01:00</time>
      </trkpt>
      <trkpt lat="43.58932" lon="1.16486">
        <ele>243</ele>
        <time>2019-10-27T13:55:03+01:00</time>
      </trkpt>
      <trkpt lat="43.58926" lon="1.16496">
        <ele>243</ele>
        <time>2019-10-27T13:55:10+01:00</time>
      </trkpt>
      <trkpt lat="43.58917" lon="1.16501">
        <ele>244</ele>
        <time>2019-10-27T13:55:18+01:00</time>
      </trkpt>
      <trkpt lat="43.58906" lon="1.16497">
        <ele>245</ele>
        <time>2019-10-27T13:55:24+01:00</time>
      </trkpt>
      <trkpt lat="43.58908" lon="1.16511">
        <ele>246</ele>
        <time>2019-10-27T13:55:32+01:00</time>
      </trkpt>
      <trkpt lat="43.58903" lon="1.1649">
        <ele>247</ele>
        <time>2019-10-27T13:55:36+01:00</time>
      </trkpt>
      <trkpt lat="43.58892" lon="1.16482">
        <ele>246</ele>
        <time>2019-10-27T13:55:38+01:00</time>
      </trkpt>
      <trkpt lat="43.58885" lon="1.1649">
        <ele>244</ele>
        <time>2019-10-27T13:55:43+01:00</time>
      </trkpt>
      <trkpt lat="43.58879" lon="1.16501">
        <ele>243</ele>
        <time>2019-10-27T13:55:49+01:00</time>
      </trkpt>
      <trkpt lat="43.5887" lon="1.16506">
        <ele>244</ele>
        <time>2019-10-27T13:55:58+01:00</time>
      </trkpt>
      <trkpt lat="43.5886" lon="1.16502">
        <ele>248</ele>
        <time>2019-10-27T13:56:07+01:00</time>
      </trkpt>
      <trkpt lat="43.58853" lon="1.16495">
        <ele>248</ele>
        <time>2019-10-27T13:56:14+01:00</time>
      </trkpt>
      <trkpt lat="43.58845" lon="1.16487">
        <ele>249</ele>
        <time>2019-10-27T13:56:21+01:00</time>
      </trkpt>
      <trkpt lat="43.5884" lon="1.16474">
        <ele>250</ele>
        <time>2019-10-27T13:56:29+01:00</time>
      </trkpt>
      <trkpt lat="43.58832" lon="1.16469">
        <ele>252</ele>
        <time>2019-10-27T13:56:40+01:00</time>
      </trkpt>
      <trkpt lat="43.58825" lon="1.16478">
        <ele>247</ele>
        <time>2019-10-27T13:57:11+01:00</time>
      </trkpt>
      <trkpt lat="43.58815" lon="1.16477">
        <ele>244</ele>
        <time>2019-10-27T13:57:26+01:00</time>
      </trkpt>
      <trkpt lat="43.58804" lon="1.16477">
        <ele>243</ele>
        <time>2019-10-27T13:57:33+01:00</time>
      </trkpt>
      <trkpt lat="43.58794" lon="1.16481">
        <ele>241</ele>
        <time>2019-10-27T13:57:52+01:00</time>
      </trkpt>
      <trkpt lat="43.58785" lon="1.16485">
        <ele>239</ele>
        <time>2019-10-27T13:58:54+01:00</time>
      </trkpt>
      <trkpt lat="43.58775" lon="1.16486">
        <ele>239</ele>
        <time>2019-10-27T13:58:59+01:00</time>
      </trkpt>
      <trkpt lat="43.58766" lon="1.16489">
        <ele>236</ele>
        <time>2019-10-27T13:59:07+01:00</time>
      </trkpt>
      <trkpt lat="43.58756" lon="1.1649">
        <ele>232</ele>
        <time>2019-10-27T13:59:27+01:00</time>
      </trkpt>
      <trkpt lat="43.58747" lon="1.16493">
        <ele>232</ele>
        <time>2019-10-27T13:59:35+01:00</time>
      </trkpt>
      <trkpt lat="43.58737" lon="1.16497">
        <ele>232</ele>
        <time>2019-10-27T13:59:41+01:00</time>
      </trkpt>
      <trkpt lat="43.58729" lon="1.16503">
        <ele>232</ele>
        <time>2019-10-27T13:59:47+01:00</time>
      </trkpt>
      <trkpt lat="43.58721" lon="1.16511">
        <ele>233</ele>
        <time>2019-10-27T13:59:55+01:00</time>
      </trkpt>
      <trkpt lat="43.58724" lon="1.16524">
        <ele>231</ele>
        <time>2019-10-27T14:00:02+01:00</time>
      </trkpt>
      <trkpt lat="43.58723" lon="1.16537">
        <ele>229</ele>
        <time>2019-10-27T14:00:09+01:00</time>
      </trkpt>
      <trkpt lat="43.58728" lon="1.16549">
        <ele>227</ele>
        <time>2019-10-27T14:00:15+01:00</time>
      </trkpt>
      <trkpt lat="43.58731" lon="1.1656">
        <ele>226</ele>
        <time>2019-10-27T14:00:22+01:00</time>
      </trkpt>
      <trkpt lat="43.58732" lon="1.16574">
        <ele>222</ele>
        <time>2019-10-27T14:00:30+01:00</time>
      </trkpt>
      <trkpt lat="43.58735" lon="1.16585">
        <ele>221</ele>
        <time>2019-10-27T14:00:36+01:00</time>
      </trkpt>
      <trkpt lat="43.58735" lon="1.16598">
        <ele>220</ele>
        <time>2019-10-27T14:00:43+01:00</time>
      </trkpt>
      <trkpt lat="43.58737" lon="1.16613">
        <ele>219</ele>
        <time>2019-10-27T14:00:49+01:00</time>
      </trkpt>
      <trkpt lat="43.58739" lon="1.16625">
        <ele>218</ele>
        <time>2019-10-27T14:00:54+01:00</time>
      </trkpt>
      <trkpt lat="43.5874" lon="1.16638">
        <ele>216</ele>
        <time>2019-10-27T14:01:01+01:00</time>
      </trkpt>
      <trkpt lat="43.58739" lon="1.16651">
        <ele>215</ele>
        <time>2019-10-27T14:01:08+01:00</time>
      </trkpt>
      <trkpt lat="43.5874" lon="1.16665">
        <ele>216</ele>
        <time>2019-10-27T14:01:14+01:00</time>
      </trkpt>
      <trkpt lat="43.58742" lon="1.16678">
        <ele>216</ele>
        <time>2019-10-27T14:01:20+01:00</time>
      </trkpt>
      <trkpt lat="43.58742" lon="1.16691">
        <ele>216</ele>
        <time>2019-10-27T14:01:28+01:00</time>
      </trkpt>
      <trkpt lat="43.58745" lon="1.16704">
        <ele>214</ele>
        <time>2019-10-27T14:01:34+01:00</time>
      </trkpt>
      <trkpt lat="43.58748" lon="1.16716">
        <ele>215</ele>
        <time>2019-10-27T14:01:40+01:00</time>
      </trkpt>
      <trkpt lat="43.58747" lon="1.16729">
        <ele>215</ele>
        <time>2019-10-27T14:01:47+01:00</time>
      </trkpt>
      <trkpt lat="43.58748" lon="1.16742">
        <ele>216</ele>
        <time>2019-10-27T14:01:53+01:00</time>
      </trkpt>
      <trkpt lat="43.58747" lon="1.16755">
        <ele>217</ele>
        <time>2019-10-27T14:01:59+01:00</time>
      </trkpt>
      <trkpt lat="43.58748" lon="1.16769">
        <ele>217</ele>
        <time>2019-10-27T14:02:04+01:00</time>
      </trkpt>
      <trkpt lat="43.58751" lon="1.1678">
        <ele>217</ele>
        <time>2019-10-27T14:02:09+01:00</time>
      </trkpt>
      <trkpt lat="43.58753" lon="1.16793">
        <ele>217</ele>
        <time>2019-10-27T14:02:17+01:00</time>
      </trkpt>
      <trkpt lat="43.58757" lon="1.16806">
        <ele>217</ele>
        <time>2019-10-27T14:02:24+01:00</time>
      </trkpt>
      <trkpt lat="43.5876" lon="1.16821">
        <ele>217</ele>
        <time>2019-10-27T14:02:31+01:00</time>
      </trkpt>
      <trkpt lat="43.5876" lon="1.16834">
        <ele>218</ele>
        <time>2019-10-27T14:02:37+01:00</time>
      </trkpt>
      <trkpt lat="43.5876" lon="1.16846">
        <ele>218</ele>
        <time>2019-10-27T14:02:43+01:00</time>
      </trkpt>
      <trkpt lat="43.58759" lon="1.16859">
        <ele>219</ele>
        <time>2019-10-27T14:02:49+01:00</time>
      </trkpt>
      <trkpt lat="43.58761" lon="1.16872">
        <ele>219</ele>
        <time>2019-10-27T14:02:55+01:00</time>
      </trkpt>
      <trkpt lat="43.58764" lon="1.16884">
        <ele>218</ele>
        <time>2019-10-27T14:03:00+01:00</time>
      </trkpt>
      <trkpt lat="43.58765" lon="1.16898">
        <ele>217</ele>
        <time>2019-10-27T14:03:07+01:00</time>
      </trkpt>
      <trkpt lat="43.58766" lon="1.16911">
        <ele>216</ele>
        <time>2019-10-27T14:03:15+01:00</time>
      </trkpt>
      <trkpt lat="43.58767" lon="1.16924">
        <ele>217</ele>
        <time>2019-10-27T14:03:21+01:00</time>
      </trkpt>
      <trkpt lat="43.58768" lon="1.16938">
        <ele>219</ele>
        <time>2019-10-27T14:03:28+01:00</time>
      </trkpt>
      <trkpt lat="43.58767" lon="1.1695">
        <ele>220</ele>
        <time>2019-10-27T14:03:33+01:00</time>
      </trkpt>
      <trkpt lat="43.58769" lon="1.16965">
        <ele>222</ele>
        <time>2019-10-27T14:03:39+01:00</time>
      </trkpt>
      <trkpt lat="43.58772" lon="1.16977">
        <ele>224</ele>
        <time>2019-10-27T14:03:45+01:00</time>
      </trkpt>
      <trkpt lat="43.58771" lon="1.1699">
        <ele>226</ele>
        <time>2019-10-27T14:03:51+01:00</time>
      </trkpt>
      <trkpt lat="43.58762" lon="1.16993">
        <ele>227</ele>
        <time>2019-10-27T14:03:58+01:00</time>
      </trkpt>
      <trkpt lat="43.58753" lon="1.16998">
        <ele>226</ele>
        <time>2019-10-27T14:04:05+01:00</time>
      </trkpt>
      <trkpt lat="43.58744" lon="1.17004">
        <ele>225</ele>
        <time>2019-10-27T14:04:12+01:00</time>
      </trkpt>
      <trkpt lat="43.58735" lon="1.17008">
        <ele>221</ele>
        <time>2019-10-27T14:04:20+01:00</time>
      </trkpt>
      <trkpt lat="43.58726" lon="1.1701">
        <ele>217</ele>
        <time>2019-10-27T14:04:30+01:00</time>
      </trkpt>
      <trkpt lat="43.58716" lon="1.17012">
        <ele>215</ele>
        <time>2019-10-27T14:04:45+01:00</time>
      </trkpt>
      <trkpt lat="43.58706" lon="1.17012">
        <ele>214</ele>
        <time>2019-10-27T14:04:50+01:00</time>
      </trkpt>
      <trkpt lat="43.58701" lon="1.17">
        <ele>216</ele>
        <time>2019-10-27T14:05:07+01:00</time>
      </trkpt>
      <trkpt lat="43.58704" lon="1.16988">
        <ele>216</ele>
        <time>2019-10-27T14:05:14+01:00</time>
      </trkpt>
      <trkpt lat="43.58708" lon="1.16975">
        <ele>215</ele>
        <time>2019-10-27T14:05:22+01:00</time>
      </trkpt>
      <trkpt lat="43.58708" lon="1.1696">
        <ele>215</ele>
        <time>2019-10-27T14:05:30+01:00</time>
      </trkpt>
      <trkpt lat="43.58712" lon="1.16946">
        <ele>216</ele>
        <time>2019-10-27T14:05:35+01:00</time>
      </trkpt>
      <trkpt lat="43.58721" lon="1.16939">
        <ele>217</ele>
        <time>2019-10-27T14:05:40+01:00</time>
      </trkpt>
      <trkpt lat="43.58728" lon="1.16931">
        <ele>215</ele>
        <time>2019-10-27T14:05:51+01:00</time>
      </trkpt>
      <trkpt lat="43.58729" lon="1.16917">
        <ele>214</ele>
        <time>2019-10-27T14:06:00+01:00</time>
      </trkpt>
      <trkpt lat="43.58728" lon="1.16904">
        <ele>216</ele>
        <time>2019-10-27T14:06:12+01:00</time>
      </trkpt>
      <trkpt lat="43.58731" lon="1.16907">
        <ele>217</ele>
        <time>2019-10-27T14:07:33+01:00</time>
      </trkpt>
      <trkpt lat="43.58725" lon="1.16898">
        <ele>217</ele>
        <time>2019-10-27T14:07:43+01:00</time>
      </trkpt>
      <trkpt lat="43.58721" lon="1.16886">
        <ele>218</ele>
        <time>2019-10-27T14:07:48+01:00</time>
      </trkpt>
      <trkpt lat="43.58718" lon="1.16874">
        <ele>218</ele>
        <time>2019-10-27T14:07:56+01:00</time>
      </trkpt>
      <trkpt lat="43.58715" lon="1.16861">
        <ele>219</ele>
        <time>2019-10-27T14:08:05+01:00</time>
      </trkpt>
      <trkpt lat="43.58716" lon="1.16848">
        <ele>219</ele>
        <time>2019-10-27T14:08:10+01:00</time>
      </trkpt>
      <trkpt lat="43.58714" lon="1.16835">
        <ele>217</ele>
        <time>2019-10-27T14:08:19+01:00</time>
      </trkpt>
      <trkpt lat="43.58708" lon="1.16824">
        <ele>217</ele>
        <time>2019-10-27T14:08:26+01:00</time>
      </trkpt>
      <trkpt lat="43.58706" lon="1.16812">
        <ele>217</ele>
        <time>2019-10-27T14:08:35+01:00</time>
      </trkpt>
      <trkpt lat="43.58709" lon="1.16799">
        <ele>218</ele>
        <time>2019-10-27T14:08:40+01:00</time>
      </trkpt>
      <trkpt lat="43.58708" lon="1.16785">
        <ele>220</ele>
        <time>2019-10-27T14:08:50+01:00</time>
      </trkpt>
      <trkpt lat="43.58705" lon="1.16772">
        <ele>221</ele>
        <time>2019-10-27T14:08:57+01:00</time>
      </trkpt>
      <trkpt lat="43.58702" lon="1.16759">
        <ele>222</ele>
        <time>2019-10-27T14:09:05+01:00</time>
      </trkpt>
      <trkpt lat="43.58697" lon="1.16748">
        <ele>221</ele>
        <time>2019-10-27T14:09:28+01:00</time>
      </trkpt>
      <trkpt lat="43.58692" lon="1.16734">
        <ele>222</ele>
        <time>2019-10-27T14:09:37+01:00</time>
      </trkpt>
      <trkpt lat="43.58688" lon="1.16723">
        <ele>222</ele>
        <time>2019-10-27T14:09:43+01:00</time>
      </trkpt>
      <trkpt lat="43.58684" lon="1.1671">
        <ele>222</ele>
        <time>2019-10-27T14:09:52+01:00</time>
      </trkpt>
      <trkpt lat="43.58677" lon="1.167">
        <ele>222</ele>
        <time>2019-10-27T14:09:58+01:00</time>
      </trkpt>
      <trkpt lat="43.58673" lon="1.16688">
        <ele>223</ele>
        <time>2019-10-27T14:10:06+01:00</time>
      </trkpt>
      <trkpt lat="43.58673" lon="1.16676">
        <ele>224</ele>
        <time>2019-10-27T14:10:13+01:00</time>
      </trkpt>
      <trkpt lat="43.58674" lon="1.16663">
        <ele>226</ele>
        <time>2019-10-27T14:10:23+01:00</time>
      </trkpt>
      <trkpt lat="43.58677" lon="1.16649">
        <ele>227</ele>
        <time>2019-10-27T14:10:30+01:00</time>
      </trkpt>
      <trkpt lat="43.58683" lon="1.16638">
        <ele>227</ele>
        <time>2019-10-27T14:10:37+01:00</time>
      </trkpt>
      <trkpt lat="43.58685" lon="1.16624">
        <ele>225</ele>
        <time>2019-10-27T14:10:46+01:00</time>
      </trkpt>
      <trkpt lat="43.58687" lon="1.16612">
        <ele>222</ele>
        <time>2019-10-27T14:11:15+01:00</time>
      </trkpt>
      <trkpt lat="43.58678" lon="1.16605">
        <ele>222</ele>
        <time>2019-10-27T14:12:50+01:00</time>
      </trkpt>
      <trkpt lat="43.58673" lon="1.16594">
        <ele>223</ele>
        <time>2019-10-27T14:12:59+01:00</time>
      </trkpt>
      <trkpt lat="43.58677" lon="1.16582">
        <ele>223</ele>
        <time>2019-10-27T14:13:10+01:00</time>
      </trkpt>
      <trkpt lat="43.58682" lon="1.16569">
        <ele>224</ele>
        <time>2019-10-27T14:13:18+01:00</time>
      </trkpt>
      <trkpt lat="43.58683" lon="1.16557">
        <ele>224</ele>
        <time>2019-10-27T14:13:28+01:00</time>
      </trkpt>
      <trkpt lat="43.58674" lon="1.16551">
        <ele>224</ele>
        <time>2019-10-27T14:13:36+01:00</time>
      </trkpt>
      <trkpt lat="43.58665" lon="1.16543">
        <ele>224</ele>
        <time>2019-10-27T14:13:42+01:00</time>
      </trkpt>
      <trkpt lat="43.58661" lon="1.16531">
        <ele>223</ele>
        <time>2019-10-27T14:13:48+01:00</time>
      </trkpt>
      <trkpt lat="43.5866" lon="1.16517">
        <ele>225</ele>
        <time>2019-10-27T14:13:56+01:00</time>
      </trkpt>
      <trkpt lat="43.58665" lon="1.16507">
        <ele>226</ele>
        <time>2019-10-27T14:14:05+01:00</time>
      </trkpt>
      <trkpt lat="43.5867" lon="1.16495">
        <ele>226</ele>
        <time>2019-10-27T14:14:14+01:00</time>
      </trkpt>
      <trkpt lat="43.58672" lon="1.1648">
        <ele>225</ele>
        <time>2019-10-27T14:14:19+01:00</time>
      </trkpt>
      <trkpt lat="43.58676" lon="1.16468">
        <ele>225</ele>
        <time>2019-10-27T14:14:26+01:00</time>
      </trkpt>
      <trkpt lat="43.58679" lon="1.16454">
        <ele>223</ele>
        <time>2019-10-27T14:14:32+01:00</time>
      </trkpt>
      <trkpt lat="43.58681" lon="1.16441">
        <ele>224</ele>
        <time>2019-10-27T14:14:40+01:00</time>
      </trkpt>
      <trkpt lat="43.58671" lon="1.16435">
        <ele>225</ele>
        <time>2019-10-27T14:14:47+01:00</time>
      </trkpt>
      <trkpt lat="43.58666" lon="1.16424">
        <ele>228</ele>
        <time>2019-10-27T14:15:13+01:00</time>
      </trkpt>
      <trkpt lat="43.58659" lon="1.16416">
        <ele>229</ele>
        <time>2019-10-27T14:15:20+01:00</time>
      </trkpt>
      <trkpt lat="43.58657" lon="1.16403">
        <ele>229</ele>
        <time>2019-10-27T14:15:29+01:00</time>
      </trkpt>
      <trkpt lat="43.58662" lon="1.16392">
        <ele>229</ele>
        <time>2019-10-27T14:15:37+01:00</time>
      </trkpt>
      <trkpt lat="43.58653" lon="1.16385">
        <ele>229</ele>
        <time>2019-10-27T14:15:45+01:00</time>
      </trkpt>
      <trkpt lat="43.58645" lon="1.16379">
        <ele>228</ele>
        <time>2019-10-27T14:15:50+01:00</time>
      </trkpt>
      <trkpt lat="43.58646" lon="1.16366">
        <ele>228</ele>
        <time>2019-10-27T14:15:57+01:00</time>
      </trkpt>
      <trkpt lat="43.58644" lon="1.16352">
        <ele>228</ele>
        <time>2019-10-27T14:16:04+01:00</time>
      </trkpt>
      <trkpt lat="43.5864" lon="1.16339">
        <ele>228</ele>
        <time>2019-10-27T14:16:11+01:00</time>
      </trkpt>
      <trkpt lat="43.58638" lon="1.16325">
        <ele>228</ele>
        <time>2019-10-27T14:16:17+01:00</time>
      </trkpt>
      <trkpt lat="43.58636" lon="1.16313">
        <ele>229</ele>
        <time>2019-10-27T14:16:25+01:00</time>
      </trkpt>
      <trkpt lat="43.58632" lon="1.16301">
        <ele>231</ele>
        <time>2019-10-27T14:16:31+01:00</time>
      </trkpt>
      <trkpt lat="43.58626" lon="1.1629">
        <ele>233</ele>
        <time>2019-10-27T14:16:39+01:00</time>
      </trkpt>
      <trkpt lat="43.58624" lon="1.16277">
        <ele>233</ele>
        <time>2019-10-27T14:16:47+01:00</time>
      </trkpt>
      <trkpt lat="43.5862" lon="1.16265">
        <ele>235</ele>
        <time>2019-10-27T14:16:54+01:00</time>
      </trkpt>
      <trkpt lat="43.5862" lon="1.16251">
        <ele>234</ele>
        <time>2019-10-27T14:16:59+01:00</time>
      </trkpt>
      <trkpt lat="43.58615" lon="1.16239">
        <ele>234</ele>
        <time>2019-10-27T14:17:05+01:00</time>
      </trkpt>
      <trkpt lat="43.58616" lon="1.16225">
        <ele>232</ele>
        <time>2019-10-27T14:17:13+01:00</time>
      </trkpt>
      <trkpt lat="43.58621" lon="1.16213">
        <ele>230</ele>
        <time>2019-10-27T14:17:22+01:00</time>
      </trkpt>
      <trkpt lat="43.58619" lon="1.16199">
        <ele>231</ele>
        <time>2019-10-27T14:17:28+01:00</time>
      </trkpt>
      <trkpt lat="43.58615" lon="1.16187">
        <ele>233</ele>
        <time>2019-10-27T14:17:35+01:00</time>
      </trkpt>
      <trkpt lat="43.58609" lon="1.16176">
        <ele>233</ele>
        <time>2019-10-27T14:17:43+01:00</time>
      </trkpt>
      <trkpt lat="43.58605" lon="1.16163">
        <ele>234</ele>
        <time>2019-10-27T14:17:51+01:00</time>
      </trkpt>
      <trkpt lat="43.586" lon="1.16152">
        <ele>235</ele>
        <time>2019-10-27T14:17:57+01:00</time>
      </trkpt>
      <trkpt lat="43.58596" lon="1.16139">
        <ele>236</ele>
        <time>2019-10-27T14:18:03+01:00</time>
      </trkpt>
      <trkpt lat="43.58591" lon="1.16127">
        <ele>235</ele>
        <time>2019-10-27T14:18:10+01:00</time>
      </trkpt>
      <trkpt lat="43.58586" lon="1.16117">
        <ele>233</ele>
        <time>2019-10-27T14:18:19+01:00</time>
      </trkpt>
      <trkpt lat="43.58582" lon="1.16105">
        <ele>231</ele>
        <time>2019-10-27T14:18:27+01:00</time>
      </trkpt>
      <trkpt lat="43.5858" lon="1.16092">
        <ele>229</ele>
        <time>2019-10-27T14:18:34+01:00</time>
      </trkpt>
      <trkpt lat="43.58581" lon="1.16078">
        <ele>227</ele>
        <time>2019-10-27T14:18:43+01:00</time>
      </trkpt>
      <trkpt lat="43.58576" lon="1.16067">
        <ele>226</ele>
        <time>2019-10-27T14:18:50+01:00</time>
      </trkpt>
      <trkpt lat="43.58574" lon="1.16054">
        <ele>225</ele>
        <time>2019-10-27T14:18:59+01:00</time>
      </trkpt>
      <trkpt lat="43.58569" lon="1.16042">
        <ele>227</ele>
        <time>2019-10-27T14:19:06+01:00</time>
      </trkpt>
      <trkpt lat="43.58572" lon="1.1603">
        <ele>227</ele>
        <time>2019-10-27T14:19:13+01:00</time>
      </trkpt>
      <trkpt lat="43.5858" lon="1.16023">
        <ele>226</ele>
        <time>2019-10-27T14:19:20+01:00</time>
      </trkpt>
      <trkpt lat="43.58574" lon="1.16013">
        <ele>229</ele>
        <time>2019-10-27T14:19:44+01:00</time>
      </trkpt>
      <trkpt lat="43.58565" lon="1.16014">
        <ele>230</ele>
        <time>2019-10-27T14:19:52+01:00</time>
      </trkpt>
      <trkpt lat="43.58556" lon="1.16013">
        <ele>231</ele>
        <time>2019-10-27T14:19:58+01:00</time>
      </trkpt>
      <trkpt lat="43.58547" lon="1.16015">
        <ele>231</ele>
        <time>2019-10-27T14:20:04+01:00</time>
      </trkpt>
      <trkpt lat="43.58537" lon="1.16017">
        <ele>232</ele>
        <time>2019-10-27T14:20:12+01:00</time>
      </trkpt>
      <trkpt lat="43.58527" lon="1.16022">
        <ele>234</ele>
        <time>2019-10-27T14:20:19+01:00</time>
      </trkpt>
      <trkpt lat="43.58518" lon="1.16026">
        <ele>236</ele>
        <time>2019-10-27T14:20:27+01:00</time>
      </trkpt>
      <trkpt lat="43.58508" lon="1.16027">
        <ele>235</ele>
        <time>2019-10-27T14:20:35+01:00</time>
      </trkpt>
      <trkpt lat="43.58498" lon="1.16027">
        <ele>233</ele>
        <time>2019-10-27T14:20:43+01:00</time>
      </trkpt>
      <trkpt lat="43.58489" lon="1.16031">
        <ele>233</ele>
        <time>2019-10-27T14:20:49+01:00</time>
      </trkpt>
      <trkpt lat="43.58481" lon="1.16025">
        <ele>233</ele>
        <time>2019-10-27T14:21:00+01:00</time>
      </trkpt>
      <trkpt lat="43.58487" lon="1.16035">
        <ele>233</ele>
        <time>2019-10-27T14:21:08+01:00</time>
      </trkpt>
      <trkpt lat="43.58488" lon="1.16048">
        <ele>232</ele>
        <time>2019-10-27T14:21:22+01:00</time>
      </trkpt>
      <trkpt lat="43.58489" lon="1.16061">
        <ele>231</ele>
        <time>2019-10-27T14:21:29+01:00</time>
      </trkpt>
      <trkpt lat="43.58486" lon="1.16074">
        <ele>228</ele>
        <time>2019-10-27T14:21:37+01:00</time>
      </trkpt>
      <trkpt lat="43.58487" lon="1.16088">
        <ele>227</ele>
        <time>2019-10-27T14:21:46+01:00</time>
      </trkpt>
      <trkpt lat="43.58488" lon="1.161">
        <ele>228</ele>
        <time>2019-10-27T14:21:53+01:00</time>
      </trkpt>
      <trkpt lat="43.58486" lon="1.16113">
        <ele>228</ele>
        <time>2019-10-27T14:21:59+01:00</time>
      </trkpt>
      <trkpt lat="43.58487" lon="1.16127">
        <ele>231</ele>
        <time>2019-10-27T14:22:06+01:00</time>
      </trkpt>
      <trkpt lat="43.5848" lon="1.16135">
        <ele>236</ele>
        <time>2019-10-27T14:22:17+01:00</time>
      </trkpt>
      <trkpt lat="43.58471" lon="1.16133">
        <ele>240</ele>
        <time>2019-10-27T14:22:34+01:00</time>
      </trkpt>
      <trkpt lat="43.58461" lon="1.16132">
        <ele>242</ele>
        <time>2019-10-27T14:22:43+01:00</time>
      </trkpt>
      <trkpt lat="43.58452" lon="1.16127">
        <ele>243</ele>
        <time>2019-10-27T14:22:50+01:00</time>
      </trkpt>
      <trkpt lat="43.58442" lon="1.16125">
        <ele>243</ele>
        <time>2019-10-27T14:23:02+01:00</time>
      </trkpt>
      <trkpt lat="43.58433" lon="1.16124">
        <ele>245</ele>
        <time>2019-10-27T14:23:09+01:00</time>
      </trkpt>
      <trkpt lat="43.58423" lon="1.16122">
        <ele>246</ele>
        <time>2019-10-27T14:23:15+01:00</time>
      </trkpt>
      <trkpt lat="43.58413" lon="1.16117">
        <ele>247</ele>
        <time>2019-10-27T14:23:24+01:00</time>
      </trkpt>
      <trkpt lat="43.58404" lon="1.16114">
        <ele>248</ele>
        <time>2019-10-27T14:23:32+01:00</time>
      </trkpt>
      <trkpt lat="43.58395" lon="1.16114">
        <ele>250</ele>
        <time>2019-10-27T14:23:42+01:00</time>
      </trkpt>
      <trkpt lat="43.58392" lon="1.16126">
        <ele>245</ele>
        <time>2019-10-27T14:25:21+01:00</time>
      </trkpt>
      <trkpt lat="43.58392" lon="1.16139">
        <ele>245</ele>
        <time>2019-10-27T14:25:32+01:00</time>
      </trkpt>
      <trkpt lat="43.58392" lon="1.16152">
        <ele>245</ele>
        <time>2019-10-27T14:25:38+01:00</time>
      </trkpt>
      <trkpt lat="43.58396" lon="1.16165">
        <ele>245</ele>
        <time>2019-10-27T14:25:46+01:00</time>
      </trkpt>
      <trkpt lat="43.584" lon="1.16176">
        <ele>246</ele>
        <time>2019-10-27T14:25:51+01:00</time>
      </trkpt>
      <trkpt lat="43.58402" lon="1.1619">
        <ele>247</ele>
        <time>2019-10-27T14:25:57+01:00</time>
      </trkpt>
      <trkpt lat="43.584" lon="1.16203">
        <ele>248</ele>
        <time>2019-10-27T14:26:05+01:00</time>
      </trkpt>
      <trkpt lat="43.58398" lon="1.16215">
        <ele>248</ele>
        <time>2019-10-27T14:26:11+01:00</time>
      </trkpt>
      <trkpt lat="43.584" lon="1.16229">
        <ele>250</ele>
        <time>2019-10-27T14:26:19+01:00</time>
      </trkpt>
      <trkpt lat="43.58401" lon="1.16241">
        <ele>251</ele>
        <time>2019-10-27T14:26:25+01:00</time>
      </trkpt>
      <trkpt lat="43.58398" lon="1.16253">
        <ele>253</ele>
        <time>2019-10-27T14:26:32+01:00</time>
      </trkpt>
      <trkpt lat="43.58399" lon="1.16266">
        <ele>254</ele>
        <time>2019-10-27T14:26:38+01:00</time>
      </trkpt>
      <trkpt lat="43.584" lon="1.16279">
        <ele>256</ele>
        <time>2019-10-27T14:26:46+01:00</time>
      </trkpt>
      <trkpt lat="43.58399" lon="1.16293">
        <ele>258</ele>
        <time>2019-10-27T14:26:53+01:00</time>
      </trkpt>
      <trkpt lat="43.58401" lon="1.16307">
        <ele>259</ele>
        <time>2019-10-27T14:27:01+01:00</time>
      </trkpt>
      <trkpt lat="43.58405" lon="1.16318">
        <ele>259</ele>
        <time>2019-10-27T14:27:06+01:00</time>
      </trkpt>
      <trkpt lat="43.58405" lon="1.16331">
        <ele>261</ele>
        <time>2019-10-27T14:27:13+01:00</time>
      </trkpt>
      <trkpt lat="43.58405" lon="1.16345">
        <ele>261</ele>
        <time>2019-10-27T14:27:22+01:00</time>
      </trkpt>
      <trkpt lat="43.58409" lon="1.16359">
        <ele>261</ele>
        <time>2019-10-27T14:27:26+01:00</time>
      </trkpt>
      <trkpt lat="43.58408" lon="1.16373">
        <ele>261</ele>
        <time>2019-10-27T14:27:33+01:00</time>
      </trkpt>
      <trkpt lat="43.58407" lon="1.16385">
        <ele>262</ele>
        <time>2019-10-27T14:27:42+01:00</time>
      </trkpt>
      <trkpt lat="43.58406" lon="1.16399">
        <ele>262</ele>
        <time>2019-10-27T14:27:49+01:00</time>
      </trkpt>
      <trkpt lat="43.58411" lon="1.16412">
        <ele>262</ele>
        <time>2019-10-27T14:27:53+01:00</time>
      </trkpt>
      <trkpt lat="43.58411" lon="1.16425">
        <ele>261</ele>
        <time>2019-10-27T14:27:58+01:00</time>
      </trkpt>
      <trkpt lat="43.58409" lon="1.16437">
        <ele>261</ele>
        <time>2019-10-27T14:28:06+01:00</time>
      </trkpt>
      <trkpt lat="43.58408" lon="1.1645">
        <ele>260</ele>
        <time>2019-10-27T14:28:17+01:00</time>
      </trkpt>
      <trkpt lat="43.58407" lon="1.16463">
        <ele>258</ele>
        <time>2019-10-27T14:28:24+01:00</time>
      </trkpt>
      <trkpt lat="43.58407" lon="1.16476">
        <ele>258</ele>
        <time>2019-10-27T14:28:30+01:00</time>
      </trkpt>
      <trkpt lat="43.58409" lon="1.16491">
        <ele>257</ele>
        <time>2019-10-27T14:28:35+01:00</time>
      </trkpt>
      <trkpt lat="43.58408" lon="1.16504">
        <ele>257</ele>
        <time>2019-10-27T14:28:40+01:00</time>
      </trkpt>
      <trkpt lat="43.58409" lon="1.16518">
        <ele>255</ele>
        <time>2019-10-27T14:28:50+01:00</time>
      </trkpt>
      <trkpt lat="43.58408" lon="1.1653">
        <ele>255</ele>
        <time>2019-10-27T14:28:58+01:00</time>
      </trkpt>
      <trkpt lat="43.58406" lon="1.16545">
        <ele>255</ele>
        <time>2019-10-27T14:29:03+01:00</time>
      </trkpt>
      <trkpt lat="43.58404" lon="1.16558">
        <ele>255</ele>
        <time>2019-10-27T14:29:09+01:00</time>
      </trkpt>
      <trkpt lat="43.58404" lon="1.16571">
        <ele>254</ele>
        <time>2019-10-27T14:29:15+01:00</time>
      </trkpt>
      <trkpt lat="43.58405" lon="1.16585">
        <ele>254</ele>
        <time>2019-10-27T14:29:23+01:00</time>
      </trkpt>
      <trkpt lat="43.58403" lon="1.16598">
        <ele>253</ele>
        <time>2019-10-27T14:29:30+01:00</time>
      </trkpt>
      <trkpt lat="43.58402" lon="1.16611">
        <ele>254</ele>
        <time>2019-10-27T14:29:35+01:00</time>
      </trkpt>
      <trkpt lat="43.58396" lon="1.16621">
        <ele>253</ele>
        <time>2019-10-27T14:29:43+01:00</time>
      </trkpt>
      <trkpt lat="43.58393" lon="1.16635">
        <ele>252</ele>
        <time>2019-10-27T14:29:51+01:00</time>
      </trkpt>
      <trkpt lat="43.58393" lon="1.16648">
        <ele>253</ele>
        <time>2019-10-27T14:29:58+01:00</time>
      </trkpt>
      <trkpt lat="43.58394" lon="1.16662">
        <ele>254</ele>
        <time>2019-10-27T14:30:05+01:00</time>
      </trkpt>
      <trkpt lat="43.58389" lon="1.16675">
        <ele>254</ele>
        <time>2019-10-27T14:30:11+01:00</time>
      </trkpt>
      <trkpt lat="43.58387" lon="1.16689">
        <ele>255</ele>
        <time>2019-10-27T14:30:21+01:00</time>
      </trkpt>
      <trkpt lat="43.58383" lon="1.167">
        <ele>255</ele>
        <time>2019-10-27T14:30:28+01:00</time>
      </trkpt>
      <trkpt lat="43.58385" lon="1.16715">
        <ele>255</ele>
        <time>2019-10-27T14:30:33+01:00</time>
      </trkpt>
      <trkpt lat="43.58382" lon="1.16728">
        <ele>256</ele>
        <time>2019-10-27T14:30:38+01:00</time>
      </trkpt>
      <trkpt lat="43.58379" lon="1.16741">
        <ele>256</ele>
        <time>2019-10-27T14:30:45+01:00</time>
      </trkpt>
      <trkpt lat="43.58376" lon="1.16753">
        <ele>255</ele>
        <time>2019-10-27T14:30:55+01:00</time>
      </trkpt>
      <trkpt lat="43.58375" lon="1.16766">
        <ele>255</ele>
        <time>2019-10-27T14:31:01+01:00</time>
      </trkpt>
      <trkpt lat="43.58367" lon="1.16776">
        <ele>253</ele>
        <time>2019-10-27T14:31:21+01:00</time>
      </trkpt>
      <trkpt lat="43.58366" lon="1.16788">
        <ele>252</ele>
        <time>2019-10-27T14:31:27+01:00</time>
      </trkpt>
      <trkpt lat="43.58365" lon="1.16801">
        <ele>250</ele>
        <time>2019-10-27T14:31:34+01:00</time>
      </trkpt>
      <trkpt lat="43.58365" lon="1.16815">
        <ele>247</ele>
        <time>2019-10-27T14:31:40+01:00</time>
      </trkpt>
      <trkpt lat="43.58366" lon="1.16828">
        <ele>246</ele>
        <time>2019-10-27T14:31:44+01:00</time>
      </trkpt>
      <trkpt lat="43.58366" lon="1.16841">
        <ele>244</ele>
        <time>2019-10-27T14:31:48+01:00</time>
      </trkpt>
      <trkpt lat="43.58367" lon="1.16855">
        <ele>243</ele>
        <time>2019-10-27T14:31:53+01:00</time>
      </trkpt>
      <trkpt lat="43.58365" lon="1.16867">
        <ele>241</ele>
        <time>2019-10-27T14:31:57+01:00</time>
      </trkpt>
      <trkpt lat="43.58361" lon="1.1688">
        <ele>240</ele>
        <time>2019-10-27T14:32:02+01:00</time>
      </trkpt>
      <trkpt lat="43.58359" lon="1.16893">
        <ele>238</ele>
        <time>2019-10-27T14:32:08+01:00</time>
      </trkpt>
      <trkpt lat="43.58356" lon="1.16906">
        <ele>236</ele>
        <time>2019-10-27T14:32:15+01:00</time>
      </trkpt>
      <trkpt lat="43.58354" lon="1.16919">
        <ele>236</ele>
        <time>2019-10-27T14:32:22+01:00</time>
      </trkpt>
      <trkpt lat="43.58351" lon="1.16932">
        <ele>235</ele>
        <time>2019-10-27T14:32:30+01:00</time>
      </trkpt>
      <trkpt lat="43.5835" lon="1.16945">
        <ele>235</ele>
        <time>2019-10-27T14:32:36+01:00</time>
      </trkpt>
      <trkpt lat="43.58348" lon="1.1696">
        <ele>235</ele>
        <time>2019-10-27T14:32:42+01:00</time>
      </trkpt>
      <trkpt lat="43.58346" lon="1.16972">
        <ele>235</ele>
        <time>2019-10-27T14:32:48+01:00</time>
      </trkpt>
      <trkpt lat="43.58344" lon="1.16985">
        <ele>234</ele>
        <time>2019-10-27T14:33:03+01:00</time>
      </trkpt>
      <trkpt lat="43.58338" lon="1.16996">
        <ele>235</ele>
        <time>2019-10-27T14:33:12+01:00</time>
      </trkpt>
      <trkpt lat="43.58335" lon="1.17009">
        <ele>235</ele>
        <time>2019-10-27T14:33:20+01:00</time>
      </trkpt>
      <trkpt lat="43.58333" lon="1.17024">
        <ele>235</ele>
        <time>2019-10-27T14:33:27+01:00</time>
      </trkpt>
      <trkpt lat="43.58333" lon="1.17038">
        <ele>235</ele>
        <time>2019-10-27T14:33:32+01:00</time>
      </trkpt>
      <trkpt lat="43.5833" lon="1.17053">
        <ele>236</ele>
        <time>2019-10-27T14:33:40+01:00</time>
      </trkpt>
      <trkpt lat="43.58329" lon="1.17066">
        <ele>237</ele>
        <time>2019-10-27T14:33:52+01:00</time>
      </trkpt>
      <trkpt lat="43.58321" lon="1.17074">
        <ele>237</ele>
        <time>2019-10-27T14:34:01+01:00</time>
      </trkpt>
      <trkpt lat="43.58314" lon="1.17066">
        <ele>237</ele>
        <time>2019-10-27T14:34:09+01:00</time>
      </trkpt>
      <trkpt lat="43.58317" lon="1.17054">
        <ele>234</ele>
        <time>2019-10-27T14:34:51+01:00</time>
      </trkpt>
      <trkpt lat="43.58313" lon="1.17039">
        <ele>227</ele>
        <time>2019-10-27T14:35:13+01:00</time>
      </trkpt>
      <trkpt lat="43.58306" lon="1.17029">
        <ele>227</ele>
        <time>2019-10-27T14:35:17+01:00</time>
      </trkpt>
      <trkpt lat="43.58302" lon="1.17017">
        <ele>227</ele>
        <time>2019-10-27T14:35:24+01:00</time>
      </trkpt>
      <trkpt lat="43.58299" lon="1.17005">
        <ele>228</ele>
        <time>2019-10-27T14:35:28+01:00</time>
      </trkpt>
      <trkpt lat="43.58294" lon="1.16993">
        <ele>228</ele>
        <time>2019-10-27T14:35:33+01:00</time>
      </trkpt>
      <trkpt lat="43.5829" lon="1.16981">
        <ele>230</ele>
        <time>2019-10-27T14:35:40+01:00</time>
      </trkpt>
      <trkpt lat="43.58284" lon="1.16971">
        <ele>232</ele>
        <time>2019-10-27T14:35:48+01:00</time>
      </trkpt>
      <trkpt lat="43.58277" lon="1.16963">
        <ele>235</ele>
        <time>2019-10-27T14:35:57+01:00</time>
      </trkpt>
      <trkpt lat="43.58271" lon="1.16953">
        <ele>239</ele>
        <time>2019-10-27T14:36:05+01:00</time>
      </trkpt>
      <trkpt lat="43.58263" lon="1.16945">
        <ele>242</ele>
        <time>2019-10-27T14:36:14+01:00</time>
      </trkpt>
      <trkpt lat="43.58259" lon="1.16934">
        <ele>244</ele>
        <time>2019-10-27T14:36:22+01:00</time>
      </trkpt>
      <trkpt lat="43.58256" lon="1.16921">
        <ele>247</ele>
        <time>2019-10-27T14:36:33+01:00</time>
      </trkpt>
      <trkpt lat="43.58251" lon="1.1691">
        <ele>248</ele>
        <time>2019-10-27T14:36:41+01:00</time>
      </trkpt>
      <trkpt lat="43.58251" lon="1.16897">
        <ele>251</ele>
        <time>2019-10-27T14:36:48+01:00</time>
      </trkpt>
      <trkpt lat="43.58245" lon="1.16886">
        <ele>253</ele>
        <time>2019-10-27T14:36:55+01:00</time>
      </trkpt>
      <trkpt lat="43.5824" lon="1.16874">
        <ele>254</ele>
        <time>2019-10-27T14:37:03+01:00</time>
      </trkpt>
      <trkpt lat="43.58236" lon="1.16862">
        <ele>256</ele>
        <time>2019-10-27T14:37:12+01:00</time>
      </trkpt>
      <trkpt lat="43.58237" lon="1.16849">
        <ele>257</ele>
        <time>2019-10-27T14:37:18+01:00</time>
      </trkpt>
      <trkpt lat="43.58239" lon="1.16837">
        <ele>259</ele>
        <time>2019-10-27T14:37:33+01:00</time>
      </trkpt>
      <trkpt lat="43.58238" lon="1.16823">
        <ele>259</ele>
        <time>2019-10-27T14:37:43+01:00</time>
      </trkpt>
      <trkpt lat="43.5824" lon="1.16811">
        <ele>260</ele>
        <time>2019-10-27T14:37:51+01:00</time>
      </trkpt>
      <trkpt lat="43.5824" lon="1.16798">
        <ele>262</ele>
        <time>2019-10-27T14:38:04+01:00</time>
      </trkpt>
      <trkpt lat="43.58233" lon="1.16787">
        <ele>263</ele>
        <time>2019-10-27T14:38:13+01:00</time>
      </trkpt>
      <trkpt lat="43.5823" lon="1.16774">
        <ele>263</ele>
        <time>2019-10-27T14:38:23+01:00</time>
      </trkpt>
      <trkpt lat="43.58228" lon="1.16761">
        <ele>264</ele>
        <time>2019-10-27T14:38:32+01:00</time>
      </trkpt>
      <trkpt lat="43.58226" lon="1.16748">
        <ele>265</ele>
        <time>2019-10-27T14:38:39+01:00</time>
      </trkpt>
      <trkpt lat="43.58222" lon="1.16736">
        <ele>265</ele>
        <time>2019-10-27T14:38:47+01:00</time>
      </trkpt>
      <trkpt lat="43.5822" lon="1.16722">
        <ele>265</ele>
        <time>2019-10-27T14:38:56+01:00</time>
      </trkpt>
      <trkpt lat="43.58215" lon="1.16711">
        <ele>267</ele>
        <time>2019-10-27T14:39:08+01:00</time>
      </trkpt>
      <trkpt lat="43.58215" lon="1.16697">
        <ele>269</ele>
        <time>2019-10-27T14:39:20+01:00</time>
      </trkpt>
      <trkpt lat="43.58213" lon="1.16685">
        <ele>269</ele>
        <time>2019-10-27T14:39:28+01:00</time>
      </trkpt>
      <trkpt lat="43.58211" lon="1.16673">
        <ele>269</ele>
        <time>2019-10-27T14:39:35+01:00</time>
      </trkpt>
      <trkpt lat="43.58205" lon="1.16662">
        <ele>268</ele>
        <time>2019-10-27T14:39:46+01:00</time>
      </trkpt>
      <trkpt lat="43.58204" lon="1.16649">
        <ele>268</ele>
        <time>2019-10-27T14:39:55+01:00</time>
      </trkpt>
      <trkpt lat="43.58203" lon="1.16635">
        <ele>269</ele>
        <time>2019-10-27T14:40:04+01:00</time>
      </trkpt>
      <trkpt lat="43.582" lon="1.16624">
        <ele>271</ele>
        <time>2019-10-27T14:40:13+01:00</time>
      </trkpt>
      <trkpt lat="43.58196" lon="1.16611">
        <ele>272</ele>
        <time>2019-10-27T14:40:22+01:00</time>
      </trkpt>
      <trkpt lat="43.58198" lon="1.16599">
        <ele>272</ele>
        <time>2019-10-27T14:40:32+01:00</time>
      </trkpt>
      <trkpt lat="43.58195" lon="1.16586">
        <ele>273</ele>
        <time>2019-10-27T14:40:43+01:00</time>
      </trkpt>
      <trkpt lat="43.5819" lon="1.16574">
        <ele>274</ele>
        <time>2019-10-27T14:40:50+01:00</time>
      </trkpt>
      <trkpt lat="43.58186" lon="1.16562">
        <ele>274</ele>
        <time>2019-10-27T14:40:57+01:00</time>
      </trkpt>
      <trkpt lat="43.58187" lon="1.16549">
        <ele>273</ele>
        <time>2019-10-27T14:41:06+01:00</time>
      </trkpt>
      <trkpt lat="43.58184" lon="1.16537">
        <ele>272</ele>
        <time>2019-10-27T14:41:14+01:00</time>
      </trkpt>
      <trkpt lat="43.58183" lon="1.16524">
        <ele>271</ele>
        <time>2019-10-27T14:41:20+01:00</time>
      </trkpt>
      <trkpt lat="43.58184" lon="1.16511">
        <ele>272</ele>
        <time>2019-10-27T14:41:26+01:00</time>
      </trkpt>
      <trkpt lat="43.58182" lon="1.16498">
        <ele>271</ele>
        <time>2019-10-27T14:41:35+01:00</time>
      </trkpt>
      <trkpt lat="43.58177" lon="1.16487">
        <ele>271</ele>
        <time>2019-10-27T14:41:41+01:00</time>
      </trkpt>
      <trkpt lat="43.58174" lon="1.16474">
        <ele>270</ele>
        <time>2019-10-27T14:41:49+01:00</time>
      </trkpt>
      <trkpt lat="43.58172" lon="1.16462">
        <ele>270</ele>
        <time>2019-10-27T14:41:56+01:00</time>
      </trkpt>
      <trkpt lat="43.5817" lon="1.1645">
        <ele>271</ele>
        <time>2019-10-27T14:42:03+01:00</time>
      </trkpt>
      <trkpt lat="43.58165" lon="1.16438">
        <ele>270</ele>
        <time>2019-10-27T14:42:10+01:00</time>
      </trkpt>
      <trkpt lat="43.5816" lon="1.16426">
        <ele>269</ele>
        <time>2019-10-27T14:42:17+01:00</time>
      </trkpt>
      <trkpt lat="43.58161" lon="1.16412">
        <ele>270</ele>
        <time>2019-10-27T14:42:25+01:00</time>
      </trkpt>
      <trkpt lat="43.58157" lon="1.16401">
        <ele>270</ele>
        <time>2019-10-27T14:42:32+01:00</time>
      </trkpt>
      <trkpt lat="43.58156" lon="1.16386">
        <ele>272</ele>
        <time>2019-10-27T14:42:39+01:00</time>
      </trkpt>
      <trkpt lat="43.58155" lon="1.16373">
        <ele>274</ele>
        <time>2019-10-27T14:42:48+01:00</time>
      </trkpt>
      <trkpt lat="43.58148" lon="1.16365">
        <ele>277</ele>
        <time>2019-10-27T14:43:02+01:00</time>
      </trkpt>
      <trkpt lat="43.58138" lon="1.16355">
        <ele>275</ele>
        <time>2019-10-27T14:43:39+01:00</time>
      </trkpt>
      <trkpt lat="43.58141" lon="1.16342">
        <ele>274</ele>
        <time>2019-10-27T14:43:48+01:00</time>
      </trkpt>
      <trkpt lat="43.58141" lon="1.16329">
        <ele>274</ele>
        <time>2019-10-27T14:43:56+01:00</time>
      </trkpt>
      <trkpt lat="43.58136" lon="1.16316">
        <ele>274</ele>
        <time>2019-10-27T14:44:02+01:00</time>
      </trkpt>
      <trkpt lat="43.58127" lon="1.16311">
        <ele>274</ele>
        <time>2019-10-27T14:44:10+01:00</time>
      </trkpt>
      <trkpt lat="43.58119" lon="1.16305">
        <ele>274</ele>
        <time>2019-10-27T14:44:18+01:00</time>
      </trkpt>
      <trkpt lat="43.5811" lon="1.16298">
        <ele>275</ele>
        <time>2019-10-27T14:44:25+01:00</time>
      </trkpt>
      <trkpt lat="43.58102" lon="1.1629">
        <ele>276</ele>
        <time>2019-10-27T14:44:33+01:00</time>
      </trkpt>
      <trkpt lat="43.58094" lon="1.16282">
        <ele>277</ele>
        <time>2019-10-27T14:44:41+01:00</time>
      </trkpt>
      <trkpt lat="43.58086" lon="1.16273">
        <ele>277</ele>
        <time>2019-10-27T14:44:47+01:00</time>
      </trkpt>
      <trkpt lat="43.5808" lon="1.16263">
        <ele>275</ele>
        <time>2019-10-27T14:44:54+01:00</time>
      </trkpt>
      <trkpt lat="43.58072" lon="1.16255">
        <ele>273</ele>
        <time>2019-10-27T14:45:01+01:00</time>
      </trkpt>
      <trkpt lat="43.58065" lon="1.16247">
        <ele>270</ele>
        <time>2019-10-27T14:45:09+01:00</time>
      </trkpt>
      <trkpt lat="43.58055" lon="1.16248">
        <ele>270</ele>
        <time>2019-10-27T14:45:30+01:00</time>
      </trkpt>
      <trkpt lat="43.58058" lon="1.16261">
        <ele>269</ele>
        <time>2019-10-27T14:45:36+01:00</time>
      </trkpt>
      <trkpt lat="43.58064" lon="1.16272">
        <ele>269</ele>
        <time>2019-10-27T14:45:46+01:00</time>
      </trkpt>
      <trkpt lat="43.58061" lon="1.16284">
        <ele>268</ele>
        <time>2019-10-27T14:45:55+01:00</time>
      </trkpt>
      <trkpt lat="43.5806" lon="1.16297">
        <ele>267</ele>
        <time>2019-10-27T14:46:04+01:00</time>
      </trkpt>
      <trkpt lat="43.58062" lon="1.1631">
        <ele>266</ele>
        <time>2019-10-27T14:46:11+01:00</time>
      </trkpt>
      <trkpt lat="43.58061" lon="1.16323">
        <ele>264</ele>
        <time>2019-10-27T14:46:19+01:00</time>
      </trkpt>
      <trkpt lat="43.58062" lon="1.16336">
        <ele>262</ele>
        <time>2019-10-27T14:46:26+01:00</time>
      </trkpt>
      <trkpt lat="43.58057" lon="1.16349">
        <ele>262</ele>
        <time>2019-10-27T14:46:32+01:00</time>
      </trkpt>
      <trkpt lat="43.58056" lon="1.16363">
        <ele>261</ele>
        <time>2019-10-27T14:46:39+01:00</time>
      </trkpt>
      <trkpt lat="43.58056" lon="1.16376">
        <ele>261</ele>
        <time>2019-10-27T14:46:46+01:00</time>
      </trkpt>
      <trkpt lat="43.58054" lon="1.1639">
        <ele>261</ele>
        <time>2019-10-27T14:46:52+01:00</time>
      </trkpt>
      <trkpt lat="43.58052" lon="1.16402">
        <ele>262</ele>
        <time>2019-10-27T14:46:57+01:00</time>
      </trkpt>
      <trkpt lat="43.58051" lon="1.16416">
        <ele>262</ele>
        <time>2019-10-27T14:47:03+01:00</time>
      </trkpt>
      <trkpt lat="43.5805" lon="1.1643">
        <ele>262</ele>
        <time>2019-10-27T14:47:09+01:00</time>
      </trkpt>
      <trkpt lat="43.58048" lon="1.16443">
        <ele>263</ele>
        <time>2019-10-27T14:47:17+01:00</time>
      </trkpt>
      <trkpt lat="43.58044" lon="1.16455">
        <ele>264</ele>
        <time>2019-10-27T14:47:27+01:00</time>
      </trkpt>
      <trkpt lat="43.58043" lon="1.1647">
        <ele>264</ele>
        <time>2019-10-27T14:47:35+01:00</time>
      </trkpt>
      <trkpt lat="43.58041" lon="1.16483">
        <ele>264</ele>
        <time>2019-10-27T14:47:41+01:00</time>
      </trkpt>
      <trkpt lat="43.58039" lon="1.16497">
        <ele>263</ele>
        <time>2019-10-27T14:47:46+01:00</time>
      </trkpt>
      <trkpt lat="43.58036" lon="1.16512">
        <ele>262</ele>
        <time>2019-10-27T14:47:54+01:00</time>
      </trkpt>
      <trkpt lat="43.58033" lon="1.16524">
        <ele>261</ele>
        <time>2019-10-27T14:48:00+01:00</time>
      </trkpt>
      <trkpt lat="43.58033" lon="1.16537">
        <ele>259</ele>
        <time>2019-10-27T14:48:05+01:00</time>
      </trkpt>
      <trkpt lat="43.58033" lon="1.16549">
        <ele>257</ele>
        <time>2019-10-27T14:48:13+01:00</time>
      </trkpt>
      <trkpt lat="43.5803" lon="1.16562">
        <ele>255</ele>
        <time>2019-10-27T14:48:19+01:00</time>
      </trkpt>
      <trkpt lat="43.58028" lon="1.16576">
        <ele>252</ele>
        <time>2019-10-27T14:48:26+01:00</time>
      </trkpt>
      <trkpt lat="43.58026" lon="1.1659">
        <ele>251</ele>
        <time>2019-10-27T14:48:33+01:00</time>
      </trkpt>
      <trkpt lat="43.58023" lon="1.16603">
        <ele>252</ele>
        <time>2019-10-27T14:48:38+01:00</time>
      </trkpt>
      <trkpt lat="43.58018" lon="1.16614">
        <ele>253</ele>
        <time>2019-10-27T14:48:43+01:00</time>
      </trkpt>
      <trkpt lat="43.58017" lon="1.16628">
        <ele>253</ele>
        <time>2019-10-27T14:48:49+01:00</time>
      </trkpt>
      <trkpt lat="43.58016" lon="1.16641">
        <ele>252</ele>
        <time>2019-10-27T14:48:58+01:00</time>
      </trkpt>
      <trkpt lat="43.58015" lon="1.16654">
        <ele>252</ele>
        <time>2019-10-27T14:49:05+01:00</time>
      </trkpt>
      <trkpt lat="43.58012" lon="1.16667">
        <ele>253</ele>
        <time>2019-10-27T14:49:10+01:00</time>
      </trkpt>
      <trkpt lat="43.5801" lon="1.1668">
        <ele>254</ele>
        <time>2019-10-27T14:49:16+01:00</time>
      </trkpt>
      <trkpt lat="43.5801" lon="1.16693">
        <ele>254</ele>
        <time>2019-10-27T14:49:22+01:00</time>
      </trkpt>
      <trkpt lat="43.58008" lon="1.16707">
        <ele>255</ele>
        <time>2019-10-27T14:49:29+01:00</time>
      </trkpt>
      <trkpt lat="43.58008" lon="1.16721">
        <ele>255</ele>
        <time>2019-10-27T14:49:37+01:00</time>
      </trkpt>
      <trkpt lat="43.58006" lon="1.16735">
        <ele>256</ele>
        <time>2019-10-27T14:49:46+01:00</time>
      </trkpt>
      <trkpt lat="43.58004" lon="1.16748">
        <ele>258</ele>
        <time>2019-10-27T14:49:52+01:00</time>
      </trkpt>
      <trkpt lat="43.58001" lon="1.1676">
        <ele>259</ele>
        <time>2019-10-27T14:49:59+01:00</time>
      </trkpt>
      <trkpt lat="43.57996" lon="1.16773">
        <ele>259</ele>
        <time>2019-10-27T14:50:06+01:00</time>
      </trkpt>
      <trkpt lat="43.57994" lon="1.16787">
        <ele>260</ele>
        <time>2019-10-27T14:50:13+01:00</time>
      </trkpt>
      <trkpt lat="43.57989" lon="1.16798">
        <ele>260</ele>
        <time>2019-10-27T14:50:18+01:00</time>
      </trkpt>
      <trkpt lat="43.57984" lon="1.16809">
        <ele>261</ele>
        <time>2019-10-27T14:50:25+01:00</time>
      </trkpt>
      <trkpt lat="43.57982" lon="1.16823">
        <ele>260</ele>
        <time>2019-10-27T14:50:31+01:00</time>
      </trkpt>
      <trkpt lat="43.57978" lon="1.16836">
        <ele>258</ele>
        <time>2019-10-27T14:50:37+01:00</time>
      </trkpt>
      <trkpt lat="43.57975" lon="1.16848">
        <ele>258</ele>
        <time>2019-10-27T14:50:43+01:00</time>
      </trkpt>
      <trkpt lat="43.57972" lon="1.1686">
        <ele>256</ele>
        <time>2019-10-27T14:50:51+01:00</time>
      </trkpt>
      <trkpt lat="43.57969" lon="1.16873">
        <ele>256</ele>
        <time>2019-10-27T14:50:57+01:00</time>
      </trkpt>
      <trkpt lat="43.57966" lon="1.16886">
        <ele>257</ele>
        <time>2019-10-27T14:51:04+01:00</time>
      </trkpt>
      <trkpt lat="43.57963" lon="1.16899">
        <ele>258</ele>
        <time>2019-10-27T14:51:10+01:00</time>
      </trkpt>
      <trkpt lat="43.57959" lon="1.16911">
        <ele>258</ele>
        <time>2019-10-27T14:51:15+01:00</time>
      </trkpt>
      <trkpt lat="43.57957" lon="1.16923">
        <ele>255</ele>
        <time>2019-10-27T14:51:21+01:00</time>
      </trkpt>
      <trkpt lat="43.57952" lon="1.16934">
        <ele>251</ele>
        <time>2019-10-27T14:51:28+01:00</time>
      </trkpt>
      <trkpt lat="43.57947" lon="1.16946">
        <ele>249</ele>
        <time>2019-10-27T14:51:37+01:00</time>
      </trkpt>
      <trkpt lat="43.5794" lon="1.16956">
        <ele>248</ele>
        <time>2019-10-27T14:51:43+01:00</time>
      </trkpt>
      <trkpt lat="43.5793" lon="1.16955">
        <ele>244</ele>
        <time>2019-10-27T14:51:47+01:00</time>
      </trkpt>
      <trkpt lat="43.57922" lon="1.16951">
        <ele>241</ele>
        <time>2019-10-27T14:51:59+01:00</time>
      </trkpt>
      <trkpt lat="43.57917" lon="1.1694">
        <ele>241</ele>
        <time>2019-10-27T14:52:07+01:00</time>
      </trkpt>
      <trkpt lat="43.57911" lon="1.16929">
        <ele>241</ele>
        <time>2019-10-27T14:52:15+01:00</time>
      </trkpt>
      <trkpt lat="43.5791" lon="1.16915">
        <ele>241</ele>
        <time>2019-10-27T14:53:11+01:00</time>
      </trkpt>
      <trkpt lat="43.57903" lon="1.16906">
        <ele>240</ele>
        <time>2019-10-27T14:53:20+01:00</time>
      </trkpt>
      <trkpt lat="43.57896" lon="1.16898">
        <ele>239</ele>
        <time>2019-10-27T14:53:35+01:00</time>
      </trkpt>
      <trkpt lat="43.57893" lon="1.16885">
        <ele>238</ele>
        <time>2019-10-27T14:53:44+01:00</time>
      </trkpt>
      <trkpt lat="43.5789" lon="1.16872">
        <ele>237</ele>
        <time>2019-10-27T14:53:51+01:00</time>
      </trkpt>
      <trkpt lat="43.57892" lon="1.16858">
        <ele>236</ele>
        <time>2019-10-27T14:53:58+01:00</time>
      </trkpt>
      <trkpt lat="43.57892" lon="1.16845">
        <ele>234</ele>
        <time>2019-10-27T14:54:11+01:00</time>
      </trkpt>
      <trkpt lat="43.57891" lon="1.16832">
        <ele>231</ele>
        <time>2019-10-27T14:54:21+01:00</time>
      </trkpt>
      <trkpt lat="43.57892" lon="1.16819">
        <ele>229</ele>
        <time>2019-10-27T14:54:28+01:00</time>
      </trkpt>
      <trkpt lat="43.57891" lon="1.16807">
        <ele>228</ele>
        <time>2019-10-27T14:54:35+01:00</time>
      </trkpt>
      <trkpt lat="43.57891" lon="1.16792">
        <ele>228</ele>
        <time>2019-10-27T14:54:42+01:00</time>
      </trkpt>
      <trkpt lat="43.57888" lon="1.16779">
        <ele>228</ele>
        <time>2019-10-27T14:54:49+01:00</time>
      </trkpt>
      <trkpt lat="43.57887" lon="1.16764">
        <ele>227</ele>
        <time>2019-10-27T14:54:57+01:00</time>
      </trkpt>
      <trkpt lat="43.57886" lon="1.16746">
        <ele>227</ele>
        <time>2019-10-27T14:55:05+01:00</time>
      </trkpt>
      <trkpt lat="43.57883" lon="1.16735">
        <ele>228</ele>
        <time>2019-10-27T14:55:10+01:00</time>
      </trkpt>
      <trkpt lat="43.57882" lon="1.16722">
        <ele>231</ele>
        <time>2019-10-27T14:55:18+01:00</time>
      </trkpt>
      <trkpt lat="43.57883" lon="1.16709">
        <ele>234</ele>
        <time>2019-10-27T14:55:35+01:00</time>
      </trkpt>
      <trkpt lat="43.57883" lon="1.16696">
        <ele>236</ele>
        <time>2019-10-27T14:55:44+01:00</time>
      </trkpt>
      <trkpt lat="43.57881" lon="1.16682">
        <ele>239</ele>
        <time>2019-10-27T14:55:52+01:00</time>
      </trkpt>
      <trkpt lat="43.57878" lon="1.1667">
        <ele>242</ele>
        <time>2019-10-27T14:56:03+01:00</time>
      </trkpt>
      <trkpt lat="43.5788" lon="1.16657">
        <ele>243</ele>
        <time>2019-10-27T14:56:11+01:00</time>
      </trkpt>
      <trkpt lat="43.57879" lon="1.16645">
        <ele>245</ele>
        <time>2019-10-27T14:56:17+01:00</time>
      </trkpt>
      <trkpt lat="43.5788" lon="1.16632">
        <ele>247</ele>
        <time>2019-10-27T14:56:26+01:00</time>
      </trkpt>
      <trkpt lat="43.57877" lon="1.16618">
        <ele>251</ele>
        <time>2019-10-27T14:56:44+01:00</time>
      </trkpt>
      <trkpt lat="43.57879" lon="1.16605">
        <ele>253</ele>
        <time>2019-10-27T14:56:52+01:00</time>
      </trkpt>
      <trkpt lat="43.57885" lon="1.16595">
        <ele>255</ele>
        <time>2019-10-27T14:56:59+01:00</time>
      </trkpt>
      <trkpt lat="43.57891" lon="1.16585">
        <ele>255</ele>
        <time>2019-10-27T14:57:05+01:00</time>
      </trkpt>
      <trkpt lat="43.57893" lon="1.16572">
        <ele>254</ele>
        <time>2019-10-27T14:57:12+01:00</time>
      </trkpt>
      <trkpt lat="43.57896" lon="1.1656">
        <ele>254</ele>
        <time>2019-10-27T14:57:18+01:00</time>
      </trkpt>
      <trkpt lat="43.579" lon="1.16548">
        <ele>255</ele>
        <time>2019-10-27T14:57:25+01:00</time>
      </trkpt>
      <trkpt lat="43.57899" lon="1.16535">
        <ele>256</ele>
        <time>2019-10-27T14:57:32+01:00</time>
      </trkpt>
      <trkpt lat="43.57902" lon="1.16523">
        <ele>259</ele>
        <time>2019-10-27T14:57:39+01:00</time>
      </trkpt>
      <trkpt lat="43.57903" lon="1.1651">
        <ele>261</ele>
        <time>2019-10-27T14:57:46+01:00</time>
      </trkpt>
      <trkpt lat="43.57902" lon="1.16497">
        <ele>263</ele>
        <time>2019-10-27T14:57:53+01:00</time>
      </trkpt>
      <trkpt lat="43.57904" lon="1.16483">
        <ele>265</ele>
        <time>2019-10-27T14:58:02+01:00</time>
      </trkpt>
      <trkpt lat="43.57897" lon="1.16473">
        <ele>266</ele>
        <time>2019-10-27T14:58:09+01:00</time>
      </trkpt>
      <trkpt lat="43.57888" lon="1.16465">
        <ele>265</ele>
        <time>2019-10-27T14:58:17+01:00</time>
      </trkpt>
      <trkpt lat="43.5788" lon="1.16458">
        <ele>264</ele>
        <time>2019-10-27T14:58:25+01:00</time>
      </trkpt>
      <trkpt lat="43.57874" lon="1.16447">
        <ele>267</ele>
        <time>2019-10-27T14:58:35+01:00</time>
      </trkpt>
      <trkpt lat="43.57871" lon="1.16434">
        <ele>268</ele>
        <time>2019-10-27T14:58:44+01:00</time>
      </trkpt>
      <trkpt lat="43.57873" lon="1.16422">
        <ele>269</ele>
        <time>2019-10-27T14:58:52+01:00</time>
      </trkpt>
      <trkpt lat="43.57874" lon="1.16409">
        <ele>270</ele>
        <time>2019-10-27T14:58:59+01:00</time>
      </trkpt>
      <trkpt lat="43.57873" lon="1.16395">
        <ele>270</ele>
        <time>2019-10-27T14:59:06+01:00</time>
      </trkpt>
      <trkpt lat="43.57868" lon="1.16384">
        <ele>270</ele>
        <time>2019-10-27T14:59:16+01:00</time>
      </trkpt>
      <trkpt lat="43.57859" lon="1.16378">
        <ele>272</ele>
        <time>2019-10-27T14:59:25+01:00</time>
      </trkpt>
      <trkpt lat="43.57849" lon="1.16378">
        <ele>274</ele>
        <time>2019-10-27T14:59:33+01:00</time>
      </trkpt>
      <trkpt lat="43.57841" lon="1.16381">
        <ele>274</ele>
        <time>2019-10-27T14:59:42+01:00</time>
      </trkpt>
      <trkpt lat="43.57832" lon="1.16382">
        <ele>274</ele>
        <time>2019-10-27T14:59:49+01:00</time>
      </trkpt>
      <trkpt lat="43.57822" lon="1.16383">
        <ele>275</ele>
        <time>2019-10-27T14:59:56+01:00</time>
      </trkpt>
      <trkpt lat="43.57813" lon="1.16384">
        <ele>275</ele>
        <time>2019-10-27T15:00:03+01:00</time>
      </trkpt>
      <trkpt lat="43.57804" lon="1.16379">
        <ele>275</ele>
        <time>2019-10-27T15:00:12+01:00</time>
      </trkpt>
      <trkpt lat="43.57799" lon="1.16368">
        <ele>275</ele>
        <time>2019-10-27T15:00:19+01:00</time>
      </trkpt>
      <trkpt lat="43.57798" lon="1.16354">
        <ele>275</ele>
        <time>2019-10-27T15:00:25+01:00</time>
      </trkpt>
      <trkpt lat="43.57794" lon="1.16343">
        <ele>276</ele>
        <time>2019-10-27T15:00:31+01:00</time>
      </trkpt>
      <trkpt lat="43.57792" lon="1.16331">
        <ele>276</ele>
        <time>2019-10-27T15:00:37+01:00</time>
      </trkpt>
      <trkpt lat="43.57788" lon="1.16319">
        <ele>277</ele>
        <time>2019-10-27T15:00:44+01:00</time>
      </trkpt>
      <trkpt lat="43.57787" lon="1.16305">
        <ele>276</ele>
        <time>2019-10-27T15:00:51+01:00</time>
      </trkpt>
      <trkpt lat="43.57786" lon="1.16293">
        <ele>276</ele>
        <time>2019-10-27T15:00:59+01:00</time>
      </trkpt>
      <trkpt lat="43.57782" lon="1.16279">
        <ele>277</ele>
        <time>2019-10-27T15:01:07+01:00</time>
      </trkpt>
      <trkpt lat="43.57782" lon="1.16265">
        <ele>278</ele>
        <time>2019-10-27T15:01:14+01:00</time>
      </trkpt>
      <trkpt lat="43.57783" lon="1.16253">
        <ele>277</ele>
        <time>2019-10-27T15:02:00+01:00</time>
      </trkpt>
      <trkpt lat="43.57781" lon="1.16239">
        <ele>277</ele>
        <time>2019-10-27T15:02:08+01:00</time>
      </trkpt>
      <trkpt lat="43.5778" lon="1.16227">
        <ele>277</ele>
        <time>2019-10-27T15:02:17+01:00</time>
      </trkpt>
      <trkpt lat="43.57779" lon="1.16212">
        <ele>278</ele>
        <time>2019-10-27T15:02:25+01:00</time>
      </trkpt>
      <trkpt lat="43.57778" lon="1.16199">
        <ele>278</ele>
        <time>2019-10-27T15:02:32+01:00</time>
      </trkpt>
      <trkpt lat="43.57779" lon="1.16185">
        <ele>280</ele>
        <time>2019-10-27T15:02:40+01:00</time>
      </trkpt>
      <trkpt lat="43.57779" lon="1.16172">
        <ele>281</ele>
        <time>2019-10-27T15:02:59+01:00</time>
      </trkpt>
      <trkpt lat="43.57779" lon="1.16159">
        <ele>282</ele>
        <time>2019-10-27T15:03:07+01:00</time>
      </trkpt>
      <trkpt lat="43.57777" lon="1.16147">
        <ele>283</ele>
        <time>2019-10-27T15:03:13+01:00</time>
      </trkpt>
      <trkpt lat="43.57775" lon="1.16133">
        <ele>283</ele>
        <time>2019-10-27T15:03:21+01:00</time>
      </trkpt>
      <trkpt lat="43.57776" lon="1.1612">
        <ele>283</ele>
        <time>2019-10-27T15:03:29+01:00</time>
      </trkpt>
      <trkpt lat="43.57777" lon="1.16106">
        <ele>283</ele>
        <time>2019-10-27T15:03:35+01:00</time>
      </trkpt>
      <trkpt lat="43.57777" lon="1.16093">
        <ele>283</ele>
        <time>2019-10-27T15:03:43+01:00</time>
      </trkpt>
      <trkpt lat="43.57777" lon="1.16081">
        <ele>284</ele>
        <time>2019-10-27T15:03:50+01:00</time>
      </trkpt>
      <trkpt lat="43.57777" lon="1.16067">
        <ele>284</ele>
        <time>2019-10-27T15:03:55+01:00</time>
      </trkpt>
      <trkpt lat="43.57777" lon="1.16053">
        <ele>283</ele>
        <time>2019-10-27T15:04:05+01:00</time>
      </trkpt>
      <trkpt lat="43.57778" lon="1.16039">
        <ele>282</ele>
        <time>2019-10-27T15:04:11+01:00</time>
      </trkpt>
      <trkpt lat="43.5778" lon="1.16025">
        <ele>282</ele>
        <time>2019-10-27T15:04:17+01:00</time>
      </trkpt>
      <trkpt lat="43.57783" lon="1.16012">
        <ele>281</ele>
        <time>2019-10-27T15:04:23+01:00</time>
      </trkpt>
      <trkpt lat="43.57784" lon="1.15999">
        <ele>281</ele>
        <time>2019-10-27T15:04:32+01:00</time>
      </trkpt>
      <trkpt lat="43.57784" lon="1.15986">
        <ele>280</ele>
        <time>2019-10-27T15:04:40+01:00</time>
      </trkpt>
      <trkpt lat="43.57788" lon="1.15974">
        <ele>280</ele>
        <time>2019-10-27T15:04:46+01:00</time>
      </trkpt>
      <trkpt lat="43.57792" lon="1.15961">
        <ele>280</ele>
        <time>2019-10-27T15:04:51+01:00</time>
      </trkpt>
      <trkpt lat="43.57796" lon="1.15949">
        <ele>280</ele>
        <time>2019-10-27T15:04:57+01:00</time>
      </trkpt>
      <trkpt lat="43.57797" lon="1.15936">
        <ele>282</ele>
        <time>2019-10-27T15:05:05+01:00</time>
      </trkpt>
      <trkpt lat="43.57799" lon="1.15923">
        <ele>283</ele>
        <time>2019-10-27T15:05:14+01:00</time>
      </trkpt>
      <trkpt lat="43.57801" lon="1.15909">
        <ele>284</ele>
        <time>2019-10-27T15:05:20+01:00</time>
      </trkpt>
      <trkpt lat="43.57804" lon="1.15896">
        <ele>284</ele>
        <time>2019-10-27T15:05:27+01:00</time>
      </trkpt>
      <trkpt lat="43.57808" lon="1.15882">
        <ele>283</ele>
        <time>2019-10-27T15:05:33+01:00</time>
      </trkpt>
      <trkpt lat="43.5781" lon="1.1587">
        <ele>281</ele>
        <time>2019-10-27T15:05:40+01:00</time>
      </trkpt>
      <trkpt lat="43.57812" lon="1.15858">
        <ele>280</ele>
        <time>2019-10-27T15:05:48+01:00</time>
      </trkpt>
      <trkpt lat="43.57813" lon="1.15844">
        <ele>280</ele>
        <time>2019-10-27T15:05:54+01:00</time>
      </trkpt>
      <trkpt lat="43.57815" lon="1.15831">
        <ele>283</ele>
        <time>2019-10-27T15:06:01+01:00</time>
      </trkpt>
      <trkpt lat="43.57817" lon="1.15818">
        <ele>285</ele>
        <time>2019-10-27T15:06:10+01:00</time>
      </trkpt>
      <trkpt lat="43.57821" lon="1.15805">
        <ele>284</ele>
        <time>2019-10-27T15:06:17+01:00</time>
      </trkpt>
      <trkpt lat="43.57824" lon="1.15792">
        <ele>284</ele>
        <time>2019-10-27T15:06:23+01:00</time>
      </trkpt>
      <trkpt lat="43.57822" lon="1.15779">
        <ele>283</ele>
        <time>2019-10-27T15:06:32+01:00</time>
      </trkpt>
      <trkpt lat="43.57818" lon="1.15768">
        <ele>281</ele>
        <time>2019-10-27T15:06:39+01:00</time>
      </trkpt>
      <trkpt lat="43.57811" lon="1.15758">
        <ele>279</ele>
        <time>2019-10-27T15:06:47+01:00</time>
      </trkpt>
      <trkpt lat="43.57804" lon="1.15747">
        <ele>278</ele>
        <time>2019-10-27T15:06:53+01:00</time>
      </trkpt>
      <trkpt lat="43.57798" lon="1.15737">
        <ele>277</ele>
        <time>2019-10-27T15:06:58+01:00</time>
      </trkpt>
      <trkpt lat="43.57793" lon="1.15725">
        <ele>275</ele>
        <time>2019-10-27T15:07:04+01:00</time>
      </trkpt>
      <trkpt lat="43.57788" lon="1.15714">
        <ele>274</ele>
        <time>2019-10-27T15:07:11+01:00</time>
      </trkpt>
      <trkpt lat="43.57783" lon="1.15703">
        <ele>273</ele>
        <time>2019-10-27T15:07:17+01:00</time>
      </trkpt>
      <trkpt lat="43.57777" lon="1.15693">
        <ele>276</ele>
        <time>2019-10-27T15:07:25+01:00</time>
      </trkpt>
      <trkpt lat="43.5777" lon="1.15683">
        <ele>279</ele>
        <time>2019-10-27T15:07:34+01:00</time>
      </trkpt>
      <trkpt lat="43.57763" lon="1.15673">
        <ele>281</ele>
        <time>2019-10-27T15:07:42+01:00</time>
      </trkpt>
      <trkpt lat="43.57758" lon="1.1566">
        <ele>284</ele>
        <time>2019-10-27T15:07:58+01:00</time>
      </trkpt>
      <trkpt lat="43.57752" lon="1.15649">
        <ele>284</ele>
        <time>2019-10-27T15:08:04+01:00</time>
      </trkpt>
      <trkpt lat="43.57749" lon="1.15636">
        <ele>284</ele>
        <time>2019-10-27T15:08:11+01:00</time>
      </trkpt>
      <trkpt lat="43.57743" lon="1.15626">
        <ele>283</ele>
        <time>2019-10-27T15:08:17+01:00</time>
      </trkpt>
      <trkpt lat="43.57735" lon="1.1562">
        <ele>282</ele>
        <time>2019-10-27T15:08:26+01:00</time>
      </trkpt>
      <trkpt lat="43.57728" lon="1.15611">
        <ele>280</ele>
        <time>2019-10-27T15:08:32+01:00</time>
      </trkpt>
      <trkpt lat="43.57731" lon="1.15599">
        <ele>280</ele>
        <time>2019-10-27T15:08:44+01:00</time>
      </trkpt>
      <trkpt lat="43.57737" lon="1.15589">
        <ele>280</ele>
        <time>2019-10-27T15:08:52+01:00</time>
      </trkpt>
      <trkpt lat="43.57746" lon="1.15582">
        <ele>280</ele>
        <time>2019-10-27T15:08:57+01:00</time>
      </trkpt>
      <trkpt lat="43.57752" lon="1.15573">
        <ele>280</ele>
        <time>2019-10-27T15:09:02+01:00</time>
      </trkpt>
      <trkpt lat="43.57757" lon="1.15562">
        <ele>280</ele>
        <time>2019-10-27T15:09:11+01:00</time>
      </trkpt>
      <trkpt lat="43.57765" lon="1.15554">
        <ele>281</ele>
        <time>2019-10-27T15:09:18+01:00</time>
      </trkpt>
      <trkpt lat="43.57772" lon="1.15545">
        <ele>283</ele>
        <time>2019-10-27T15:09:25+01:00</time>
      </trkpt>
      <trkpt lat="43.57779" lon="1.15537">
        <ele>283</ele>
        <time>2019-10-27T15:09:31+01:00</time>
      </trkpt>
      <trkpt lat="43.57787" lon="1.15529">
        <ele>284</ele>
        <time>2019-10-27T15:09:38+01:00</time>
      </trkpt>
      <trkpt lat="43.57795" lon="1.15519">
        <ele>287</ele>
        <time>2019-10-27T15:09:47+01:00</time>
      </trkpt>
      <trkpt lat="43.57803" lon="1.1551">
        <ele>287</ele>
        <time>2019-10-27T15:09:53+01:00</time>
      </trkpt>
      <trkpt lat="43.57811" lon="1.15504">
        <ele>288</ele>
        <time>2019-10-27T15:09:57+01:00</time>
      </trkpt>
      <trkpt lat="43.57819" lon="1.15497">
        <ele>288</ele>
        <time>2019-10-27T15:10:01+01:00</time>
      </trkpt>
      <trkpt lat="43.57827" lon="1.1549">
        <ele>288</ele>
        <time>2019-10-27T15:10:11+01:00</time>
      </trkpt>
      <trkpt lat="43.57835" lon="1.1548">
        <ele>287</ele>
        <time>2019-10-27T15:10:18+01:00</time>
      </trkpt>
      <trkpt lat="43.57841" lon="1.15471">
        <ele>286</ele>
        <time>2019-10-27T15:10:28+01:00</time>
      </trkpt>
      <trkpt lat="43.57849" lon="1.15462">
        <ele>285</ele>
        <time>2019-10-27T15:10:35+01:00</time>
      </trkpt>
      <trkpt lat="43.57857" lon="1.15456">
        <ele>283</ele>
        <time>2019-10-27T15:10:42+01:00</time>
      </trkpt>
      <trkpt lat="43.57865" lon="1.15448">
        <ele>283</ele>
        <time>2019-10-27T15:10:48+01:00</time>
      </trkpt>
      <trkpt lat="43.57873" lon="1.1544">
        <ele>282</ele>
        <time>2019-10-27T15:10:55+01:00</time>
      </trkpt>
      <trkpt lat="43.57881" lon="1.15433">
        <ele>283</ele>
        <time>2019-10-27T15:11:01+01:00</time>
      </trkpt>
      <trkpt lat="43.57888" lon="1.15423">
        <ele>285</ele>
        <time>2019-10-27T15:11:08+01:00</time>
      </trkpt>
      <trkpt lat="43.57894" lon="1.15413">
        <ele>286</ele>
        <time>2019-10-27T15:11:15+01:00</time>
      </trkpt>
      <trkpt lat="43.57901" lon="1.15403">
        <ele>287</ele>
        <time>2019-10-27T15:11:22+01:00</time>
      </trkpt>
      <trkpt lat="43.57907" lon="1.15392">
        <ele>287</ele>
        <time>2019-10-27T15:11:31+01:00</time>
      </trkpt>
      <trkpt lat="43.57913" lon="1.15381">
        <ele>285</ele>
        <time>2019-10-27T15:11:38+01:00</time>
      </trkpt>
      <trkpt lat="43.5792" lon="1.1537">
        <ele>283</ele>
        <time>2019-10-27T15:11:44+01:00</time>
      </trkpt>
      <trkpt lat="43.57925" lon="1.15359">
        <ele>282</ele>
        <time>2019-10-27T15:11:49+01:00</time>
      </trkpt>
      <trkpt lat="43.57929" lon="1.15348">
        <ele>281</ele>
        <time>2019-10-27T15:11:55+01:00</time>
      </trkpt>
      <trkpt lat="43.57935" lon="1.15336">
        <ele>280</ele>
        <time>2019-10-27T15:12:03+01:00</time>
      </trkpt>
      <trkpt lat="43.57941" lon="1.15327">
        <ele>280</ele>
        <time>2019-10-27T15:12:09+01:00</time>
      </trkpt>
      <trkpt lat="43.57947" lon="1.15316">
        <ele>281</ele>
        <time>2019-10-27T15:12:14+01:00</time>
      </trkpt>
      <trkpt lat="43.57954" lon="1.15308">
        <ele>283</ele>
        <time>2019-10-27T15:12:19+01:00</time>
      </trkpt>
      <trkpt lat="43.57963" lon="1.15303">
        <ele>285</ele>
        <time>2019-10-27T15:12:26+01:00</time>
      </trkpt>
      <trkpt lat="43.57968" lon="1.15292">
        <ele>285</ele>
        <time>2019-10-27T15:12:33+01:00</time>
      </trkpt>
      <trkpt lat="43.57975" lon="1.15282">
        <ele>286</ele>
        <time>2019-10-27T15:12:40+01:00</time>
      </trkpt>
      <trkpt lat="43.57983" lon="1.15275">
        <ele>288</ele>
        <time>2019-10-27T15:12:46+01:00</time>
      </trkpt>
      <trkpt lat="43.5799" lon="1.15265">
        <ele>288</ele>
        <time>2019-10-27T15:12:54+01:00</time>
      </trkpt>
      <trkpt lat="43.57996" lon="1.15256">
        <ele>286</ele>
        <time>2019-10-27T15:13:01+01:00</time>
      </trkpt>
      <trkpt lat="43.58004" lon="1.15247">
        <ele>287</ele>
        <time>2019-10-27T15:13:09+01:00</time>
      </trkpt>
      <trkpt lat="43.5801" lon="1.15237">
        <ele>287</ele>
        <time>2019-10-27T15:13:21+01:00</time>
      </trkpt>
      <trkpt lat="43.58017" lon="1.15229">
        <ele>285</ele>
        <time>2019-10-27T15:13:29+01:00</time>
      </trkpt>
      <trkpt lat="43.58025" lon="1.15221">
        <ele>284</ele>
        <time>2019-10-27T15:13:50+01:00</time>
      </trkpt>
      <trkpt lat="43.58033" lon="1.15215">
        <ele>282</ele>
        <time>2019-10-27T15:13:57+01:00</time>
      </trkpt>
      <trkpt lat="43.58038" lon="1.15204">
        <ele>279</ele>
        <time>2019-10-27T15:14:11+01:00</time>
      </trkpt>
      <trkpt lat="43.58046" lon="1.15197">
        <ele>277</ele>
        <time>2019-10-27T15:14:17+01:00</time>
      </trkpt>
      <trkpt lat="43.58055" lon="1.15191">
        <ele>277</ele>
        <time>2019-10-27T15:14:23+01:00</time>
      </trkpt>
      <trkpt lat="43.58063" lon="1.15185">
        <ele>279</ele>
        <time>2019-10-27T15:14:31+01:00</time>
      </trkpt>
      <trkpt lat="43.58071" lon="1.15177">
        <ele>279</ele>
        <time>2019-10-27T15:14:38+01:00</time>
      </trkpt>
      <trkpt lat="43.58081" lon="1.15173">
        <ele>278</ele>
        <time>2019-10-27T15:14:45+01:00</time>
      </trkpt>
      <trkpt lat="43.58089" lon="1.15167">
        <ele>279</ele>
        <time>2019-10-27T15:14:53+01:00</time>
      </trkpt>
      <trkpt lat="43.58098" lon="1.1516">
        <ele>279</ele>
        <time>2019-10-27T15:14:59+01:00</time>
      </trkpt>
      <trkpt lat="43.58107" lon="1.15154">
        <ele>281</ele>
        <time>2019-10-27T15:15:05+01:00</time>
      </trkpt>
      <trkpt lat="43.58116" lon="1.15148">
        <ele>282</ele>
        <time>2019-10-27T15:15:11+01:00</time>
      </trkpt>
      <trkpt lat="43.58125" lon="1.15143">
        <ele>282</ele>
        <time>2019-10-27T15:15:17+01:00</time>
      </trkpt>
      <trkpt lat="43.58134" lon="1.15136">
        <ele>283</ele>
        <time>2019-10-27T15:15:26+01:00</time>
      </trkpt>
      <trkpt lat="43.58143" lon="1.15129">
        <ele>282</ele>
        <time>2019-10-27T15:15:31+01:00</time>
      </trkpt>
      <trkpt lat="43.58151" lon="1.15123">
        <ele>282</ele>
        <time>2019-10-27T15:15:37+01:00</time>
      </trkpt>
      <trkpt lat="43.58161" lon="1.15119">
        <ele>282</ele>
        <time>2019-10-27T15:15:43+01:00</time>
      </trkpt>
      <trkpt lat="43.58168" lon="1.1511">
        <ele>282</ele>
        <time>2019-10-27T15:15:52+01:00</time>
      </trkpt>
      <trkpt lat="43.58176" lon="1.15103">
        <ele>282</ele>
        <time>2019-10-27T15:15:57+01:00</time>
      </trkpt>
      <trkpt lat="43.58185" lon="1.15098">
        <ele>283</ele>
        <time>2019-10-27T15:16:02+01:00</time>
      </trkpt>
      <trkpt lat="43.58195" lon="1.15092">
        <ele>283</ele>
        <time>2019-10-27T15:16:09+01:00</time>
      </trkpt>
      <trkpt lat="43.58203" lon="1.15086">
        <ele>284</ele>
        <time>2019-10-27T15:16:16+01:00</time>
      </trkpt>
      <trkpt lat="43.58213" lon="1.15083">
        <ele>285</ele>
        <time>2019-10-27T15:16:22+01:00</time>
      </trkpt>
      <trkpt lat="43.58222" lon="1.1508">
        <ele>286</ele>
        <time>2019-10-27T15:16:30+01:00</time>
      </trkpt>
      <trkpt lat="43.58232" lon="1.15082">
        <ele>288</ele>
        <time>2019-10-27T15:16:38+01:00</time>
      </trkpt>
      <trkpt lat="43.58241" lon="1.1508">
        <ele>291</ele>
        <time>2019-10-27T15:16:46+01:00</time>
      </trkpt>
      <trkpt lat="43.58251" lon="1.15083">
        <ele>291</ele>
        <time>2019-10-27T15:16:57+01:00</time>
      </trkpt>
      <trkpt lat="43.58261" lon="1.15081">
        <ele>288</ele>
        <time>2019-10-27T15:17:04+01:00</time>
      </trkpt>
      <trkpt lat="43.5827" lon="1.15083">
        <ele>287</ele>
        <time>2019-10-27T15:17:09+01:00</time>
      </trkpt>
      <trkpt lat="43.5828" lon="1.15083">
        <ele>286</ele>
        <time>2019-10-27T15:17:15+01:00</time>
      </trkpt>
      <trkpt lat="43.5829" lon="1.15084">
        <ele>284</ele>
        <time>2019-10-27T15:17:22+01:00</time>
      </trkpt>
      <trkpt lat="43.58299" lon="1.15087">
        <ele>283</ele>
        <time>2019-10-27T15:17:32+01:00</time>
      </trkpt>
      <trkpt lat="43.58309" lon="1.1509">
        <ele>282</ele>
        <time>2019-10-27T15:17:39+01:00</time>
      </trkpt>
      <trkpt lat="43.58319" lon="1.15092">
        <ele>281</ele>
        <time>2019-10-27T15:17:45+01:00</time>
      </trkpt>
      <trkpt lat="43.58329" lon="1.15095">
        <ele>280</ele>
        <time>2019-10-27T15:17:52+01:00</time>
      </trkpt>
      <trkpt lat="43.58338" lon="1.15094">
        <ele>280</ele>
        <time>2019-10-27T15:17:59+01:00</time>
      </trkpt>
      <trkpt lat="43.58348" lon="1.15094">
        <ele>280</ele>
        <time>2019-10-27T15:18:06+01:00</time>
      </trkpt>
      <trkpt lat="43.58358" lon="1.15095">
        <ele>280</ele>
        <time>2019-10-27T15:18:12+01:00</time>
      </trkpt>
      <trkpt lat="43.58367" lon="1.15097">
        <ele>279</ele>
        <time>2019-10-27T15:18:18+01:00</time>
      </trkpt>
      <trkpt lat="43.58375" lon="1.15102">
        <ele>280</ele>
        <time>2019-10-27T15:18:24+01:00</time>
      </trkpt>
      <trkpt lat="43.58385" lon="1.15105">
        <ele>278</ele>
        <time>2019-10-27T15:18:32+01:00</time>
      </trkpt>
      <trkpt lat="43.58393" lon="1.15111">
        <ele>276</ele>
        <time>2019-10-27T15:18:38+01:00</time>
      </trkpt>
      <trkpt lat="43.58399" lon="1.15119">
        <ele>275</ele>
        <time>2019-10-27T15:18:44+01:00</time>
      </trkpt>
      <trkpt lat="43.58404" lon="1.1513">
        <ele>275</ele>
        <time>2019-10-27T15:18:51+01:00</time>
      </trkpt>
      <trkpt lat="43.58409" lon="1.15141">
        <ele>274</ele>
        <time>2019-10-27T15:18:59+01:00</time>
      </trkpt>
      <trkpt lat="43.58417" lon="1.15149">
        <ele>274</ele>
        <time>2019-10-27T15:19:05+01:00</time>
      </trkpt>
      <trkpt lat="43.58425" lon="1.15157">
        <ele>274</ele>
        <time>2019-10-27T15:19:10+01:00</time>
      </trkpt>
      <trkpt lat="43.58432" lon="1.15168">
        <ele>274</ele>
        <time>2019-10-27T15:19:17+01:00</time>
      </trkpt>
      <trkpt lat="43.58439" lon="1.15178">
        <ele>275</ele>
        <time>2019-10-27T15:19:23+01:00</time>
      </trkpt>
      <trkpt lat="43.58445" lon="1.15188">
        <ele>274</ele>
        <time>2019-10-27T15:19:29+01:00</time>
      </trkpt>
      <trkpt lat="43.58449" lon="1.152">
        <ele>274</ele>
        <time>2019-10-27T15:19:35+01:00</time>
      </trkpt>
      <trkpt lat="43.58455" lon="1.15209">
        <ele>274</ele>
        <time>2019-10-27T15:19:41+01:00</time>
      </trkpt>
      <trkpt lat="43.58461" lon="1.15219">
        <ele>275</ele>
        <time>2019-10-27T15:19:48+01:00</time>
      </trkpt>
      <trkpt lat="43.58468" lon="1.15228">
        <ele>275</ele>
        <time>2019-10-27T15:19:55+01:00</time>
      </trkpt>
      <trkpt lat="43.58474" lon="1.15239">
        <ele>274</ele>
        <time>2019-10-27T15:20:02+01:00</time>
      </trkpt>
      <trkpt lat="43.5848" lon="1.1525">
        <ele>270</ele>
        <time>2019-10-27T15:20:09+01:00</time>
      </trkpt>
      <trkpt lat="43.58487" lon="1.1526">
        <ele>268</ele>
        <time>2019-10-27T15:20:15+01:00</time>
      </trkpt>
      <trkpt lat="43.58494" lon="1.1527">
        <ele>268</ele>
        <time>2019-10-27T15:20:22+01:00</time>
      </trkpt>
      <trkpt lat="43.58501" lon="1.15281">
        <ele>266</ele>
        <time>2019-10-27T15:20:27+01:00</time>
      </trkpt>
      <trkpt lat="43.58507" lon="1.15292">
        <ele>264</ele>
        <time>2019-10-27T15:20:34+01:00</time>
      </trkpt>
      <trkpt lat="43.58514" lon="1.15301">
        <ele>263</ele>
        <time>2019-10-27T15:20:41+01:00</time>
      </trkpt>
      <trkpt lat="43.58524" lon="1.15304">
        <ele>262</ele>
        <time>2019-10-27T15:20:48+01:00</time>
      </trkpt>
      <trkpt lat="43.58532" lon="1.15299">
        <ele>261</ele>
        <time>2019-10-27T15:20:52+01:00</time>
      </trkpt>
      <trkpt lat="43.58536" lon="1.15287">
        <ele>259</ele>
        <time>2019-10-27T15:20:58+01:00</time>
      </trkpt>
      <trkpt lat="43.58536" lon="1.15273">
        <ele>256</ele>
        <time>2019-10-27T15:21:06+01:00</time>
      </trkpt>
      <trkpt lat="43.58533" lon="1.15261">
        <ele>254</ele>
        <time>2019-10-27T15:21:12+01:00</time>
      </trkpt>
      <trkpt lat="43.5853" lon="1.15248">
        <ele>252</ele>
        <time>2019-10-27T15:21:18+01:00</time>
      </trkpt>
      <trkpt lat="43.58528" lon="1.15235">
        <ele>249</ele>
        <time>2019-10-27T15:21:25+01:00</time>
      </trkpt>
      <trkpt lat="43.58523" lon="1.15224">
        <ele>245</ele>
        <time>2019-10-27T15:21:32+01:00</time>
      </trkpt>
      <trkpt lat="43.58519" lon="1.1521">
        <ele>243</ele>
        <time>2019-10-27T15:21:39+01:00</time>
      </trkpt>
      <trkpt lat="43.58518" lon="1.15197">
        <ele>241</ele>
        <time>2019-10-27T15:21:48+01:00</time>
      </trkpt>
      <trkpt lat="43.58519" lon="1.15184">
        <ele>240</ele>
        <time>2019-10-27T15:21:55+01:00</time>
      </trkpt>
      <trkpt lat="43.58523" lon="1.15196">
        <ele>237</ele>
        <time>2019-10-27T15:22:13+01:00</time>
      </trkpt>
      <trkpt lat="43.5854" lon="1.15174">
        <ele>237</ele>
        <time>2019-10-27T15:22:18+01:00</time>
      </trkpt>
      <trkpt lat="43.58548" lon="1.15162">
        <ele>237</ele>
        <time>2019-10-27T15:22:20+01:00</time>
      </trkpt>
      <trkpt lat="43.58557" lon="1.15167">
        <ele>237</ele>
        <time>2019-10-27T15:22:23+01:00</time>
      </trkpt>
      <trkpt lat="43.58565" lon="1.15175">
        <ele>238</ele>
        <time>2019-10-27T15:22:30+01:00</time>
      </trkpt>
      <trkpt lat="43.58569" lon="1.15188">
        <ele>239</ele>
        <time>2019-10-27T15:22:37+01:00</time>
      </trkpt>
      <trkpt lat="43.58574" lon="1.15199">
        <ele>240</ele>
        <time>2019-10-27T15:22:43+01:00</time>
      </trkpt>
      <trkpt lat="43.58577" lon="1.15212">
        <ele>240</ele>
        <time>2019-10-27T15:22:48+01:00</time>
      </trkpt>
      <trkpt lat="43.58579" lon="1.15225">
        <ele>240</ele>
        <time>2019-10-27T15:22:53+01:00</time>
      </trkpt>
      <trkpt lat="43.58577" lon="1.15238">
        <ele>241</ele>
        <time>2019-10-27T15:23:01+01:00</time>
      </trkpt>
      <trkpt lat="43.58578" lon="1.15251">
        <ele>241</ele>
        <time>2019-10-27T15:23:10+01:00</time>
      </trkpt>
      <trkpt lat="43.58582" lon="1.15264">
        <ele>240</ele>
        <time>2019-10-27T15:23:19+01:00</time>
      </trkpt>
      <trkpt lat="43.58583" lon="1.15277">
        <ele>240</ele>
        <time>2019-10-27T15:23:25+01:00</time>
      </trkpt>
      <trkpt lat="43.58584" lon="1.15291">
        <ele>241</ele>
        <time>2019-10-27T15:23:31+01:00</time>
      </trkpt>
      <trkpt lat="43.58585" lon="1.15304">
        <ele>242</ele>
        <time>2019-10-27T15:23:36+01:00</time>
      </trkpt>
      <trkpt lat="43.58589" lon="1.15315">
        <ele>243</ele>
        <time>2019-10-27T15:23:40+01:00</time>
      </trkpt>
      <trkpt lat="43.58592" lon="1.15328">
        <ele>246</ele>
        <time>2019-10-27T15:23:45+01:00</time>
      </trkpt>
      <trkpt lat="43.58595" lon="1.1534">
        <ele>250</ele>
        <time>2019-10-27T15:23:50+01:00</time>
      </trkpt>
      <trkpt lat="43.586" lon="1.15353">
        <ele>250</ele>
        <time>2019-10-27T15:23:57+01:00</time>
      </trkpt>
      <trkpt lat="43.58606" lon="1.15363">
        <ele>249</ele>
        <time>2019-10-27T15:24:02+01:00</time>
      </trkpt>
      <trkpt lat="43.58614" lon="1.15368">
        <ele>251</ele>
        <time>2019-10-27T15:24:07+01:00</time>
      </trkpt>
      <trkpt lat="43.58624" lon="1.1537">
        <ele>254</ele>
        <time>2019-10-27T15:24:13+01:00</time>
      </trkpt>
      <trkpt lat="43.58635" lon="1.15372">
        <ele>257</ele>
        <time>2019-10-27T15:24:22+01:00</time>
      </trkpt>
      <trkpt lat="43.58644" lon="1.15373">
        <ele>256</ele>
        <time>2019-10-27T15:24:32+01:00</time>
      </trkpt>
      <trkpt lat="43.58654" lon="1.15374">
        <ele>255</ele>
        <time>2019-10-27T15:24:37+01:00</time>
      </trkpt>
      <trkpt lat="43.58662" lon="1.1537">
        <ele>253</ele>
        <time>2019-10-27T15:24:47+01:00</time>
      </trkpt>
      <trkpt lat="43.58672" lon="1.15368">
        <ele>253</ele>
        <time>2019-10-27T15:24:55+01:00</time>
      </trkpt>
      <trkpt lat="43.58681" lon="1.15363">
        <ele>250</ele>
        <time>2019-10-27T15:25:04+01:00</time>
      </trkpt>
      <trkpt lat="43.58683" lon="1.1535">
        <ele>250</ele>
        <time>2019-10-27T15:25:16+01:00</time>
      </trkpt>
      <trkpt lat="43.58681" lon="1.15337">
        <ele>249</ele>
        <time>2019-10-27T15:25:26+01:00</time>
      </trkpt>
      <trkpt lat="43.58681" lon="1.15324">
        <ele>248</ele>
        <time>2019-10-27T15:25:36+01:00</time>
      </trkpt>
      <trkpt lat="43.58678" lon="1.1531">
        <ele>247</ele>
        <time>2019-10-27T15:25:45+01:00</time>
      </trkpt>
      <trkpt lat="43.5868" lon="1.15298">
        <ele>247</ele>
        <time>2019-10-27T15:26:00+01:00</time>
      </trkpt>
      <trkpt lat="43.58681" lon="1.15285">
        <ele>247</ele>
        <time>2019-10-27T15:26:10+01:00</time>
      </trkpt>
      <trkpt lat="43.58679" lon="1.15272">
        <ele>248</ele>
        <time>2019-10-27T15:26:19+01:00</time>
      </trkpt>
      <trkpt lat="43.58677" lon="1.15259">
        <ele>248</ele>
        <time>2019-10-27T15:26:26+01:00</time>
      </trkpt>
      <trkpt lat="43.58679" lon="1.15242">
        <ele>250</ele>
        <time>2019-10-27T15:26:51+01:00</time>
      </trkpt>
      <trkpt lat="43.58675" lon="1.15218">
        <ele>277</ele>
        <time>2019-10-27T15:27:11+01:00</time>
      </trkpt>
      <trkpt lat="43.58675" lon="1.152">
        <ele>279</ele>
        <time>2019-10-27T15:27:28+01:00</time>
      </trkpt>
      <trkpt lat="43.58674" lon="1.15182">
        <ele>281</ele>
        <time>2019-10-27T15:27:34+01:00</time>
      </trkpt>
      <trkpt lat="43.58674" lon="1.15165">
        <ele>283</ele>
        <time>2019-10-27T15:27:40+01:00</time>
      </trkpt>
      <trkpt lat="43.58677" lon="1.15135">
        <ele>286</ele>
        <time>2019-10-27T15:27:48+01:00</time>
      </trkpt>
      <trkpt lat="43.58679" lon="1.15108">
        <ele>287</ele>
        <time>2019-10-27T15:27:56+01:00</time>
      </trkpt>
      <trkpt lat="43.58683" lon="1.1509">
        <ele>289</ele>
        <time>2019-10-27T15:28:15+01:00</time>
      </trkpt>
      <trkpt lat="43.58683" lon="1.15073">
        <ele>290</ele>
        <time>2019-10-27T15:28:24+01:00</time>
      </trkpt>
      <trkpt lat="43.58685" lon="1.15058">
        <ele>291</ele>
        <time>2019-10-27T15:28:30+01:00</time>
      </trkpt>
      <trkpt lat="43.58687" lon="1.15043">
        <ele>291</ele>
        <time>2019-10-27T15:28:36+01:00</time>
      </trkpt>
      <trkpt lat="43.5869" lon="1.1503">
        <ele>292</ele>
        <time>2019-10-27T15:28:43+01:00</time>
      </trkpt>
      <trkpt lat="43.58694" lon="1.15013">
        <ele>292</ele>
        <time>2019-10-27T15:28:52+01:00</time>
      </trkpt>
      <trkpt lat="43.58695" lon="1.14998">
        <ele>292</ele>
        <time>2019-10-27T15:29:01+01:00</time>
      </trkpt>
      <trkpt lat="43.58697" lon="1.14983">
        <ele>293</ele>
        <time>2019-10-27T15:29:07+01:00</time>
      </trkpt>
      <trkpt lat="43.58697" lon="1.14967">
        <ele>293</ele>
        <time>2019-10-27T15:29:14+01:00</time>
      </trkpt>
      <trkpt lat="43.587" lon="1.14952">
        <ele>294</ele>
        <time>2019-10-27T15:29:21+01:00</time>
      </trkpt>
      <trkpt lat="43.58704" lon="1.14937">
        <ele>294</ele>
        <time>2019-10-27T15:29:30+01:00</time>
      </trkpt>
      <trkpt lat="43.58707" lon="1.14912">
        <ele>295</ele>
        <time>2019-10-27T15:29:43+01:00</time>
      </trkpt>
      <trkpt lat="43.58709" lon="1.1489">
        <ele>295</ele>
        <time>2019-10-27T15:29:50+01:00</time>
      </trkpt>
      <trkpt lat="43.58714" lon="1.14863">
        <ele>296</ele>
        <time>2019-10-27T15:29:59+01:00</time>
      </trkpt>
      <trkpt lat="43.58734" lon="1.14887">
        <ele>295</ele>
        <time>2019-10-27T15:30:06+01:00</time>
      </trkpt>
      <trkpt lat="43.58749" lon="1.14901">
        <ele>293</ele>
        <time>2019-10-27T15:30:13+01:00</time>
      </trkpt>
      <trkpt lat="43.58761" lon="1.14916">
        <ele>291</ele>
        <time>2019-10-27T15:30:19+01:00</time>
      </trkpt>
      <trkpt lat="43.58774" lon="1.14929">
        <ele>289</ele>
        <time>2019-10-27T15:30:25+01:00</time>
      </trkpt>
      <trkpt lat="43.58791" lon="1.14948">
        <ele>285</ele>
        <time>2019-10-27T15:30:32+01:00</time>
      </trkpt>
      <trkpt lat="43.58805" lon="1.14961">
        <ele>282</ele>
        <time>2019-10-27T15:30:41+01:00</time>
      </trkpt>
      <trkpt lat="43.5882" lon="1.14974">
        <ele>280</ele>
        <time>2019-10-27T15:30:48+01:00</time>
      </trkpt>
      <trkpt lat="43.58833" lon="1.14986">
        <ele>278</ele>
        <time>2019-10-27T15:30:57+01:00</time>
      </trkpt>
      <trkpt lat="43.58849" lon="1.14996">
        <ele>277</ele>
        <time>2019-10-27T15:31:04+01:00</time>
      </trkpt>
      <trkpt lat="43.58861" lon="1.15006">
        <ele>277</ele>
        <time>2019-10-27T15:31:11+01:00</time>
      </trkpt>
      <trkpt lat="43.58875" lon="1.15009">
        <ele>270</ele>
        <time>2019-10-27T15:31:17+01:00</time>
      </trkpt>
      <trkpt lat="43.58884" lon="1.15013">
        <ele>270</ele>
        <time>2019-10-27T15:31:23+01:00</time>
      </trkpt>
      <trkpt lat="43.58893" lon="1.15018">
        <ele>271</ele>
        <time>2019-10-27T15:31:31+01:00</time>
      </trkpt>
      <trkpt lat="43.58902" lon="1.15025">
        <ele>272</ele>
        <time>2019-10-27T15:31:38+01:00</time>
      </trkpt>
      <trkpt lat="43.5891" lon="1.1503">
        <ele>273</ele>
        <time>2019-10-27T15:31:46+01:00</time>
      </trkpt>
      <trkpt lat="43.58919" lon="1.15033">
        <ele>274</ele>
        <time>2019-10-27T15:32:01+01:00</time>
      </trkpt>
      <trkpt lat="43.58928" lon="1.15038">
        <ele>273</ele>
        <time>2019-10-27T15:32:12+01:00</time>
      </trkpt>
      <trkpt lat="43.58937" lon="1.15043">
        <ele>274</ele>
        <time>2019-10-27T15:32:22+01:00</time>
      </trkpt>
      <trkpt lat="43.58947" lon="1.15046">
        <ele>275</ele>
        <time>2019-10-27T15:32:30+01:00</time>
      </trkpt>
      <trkpt lat="43.58955" lon="1.15054">
        <ele>278</ele>
        <time>2019-10-27T15:32:41+01:00</time>
      </trkpt>
      <trkpt lat="43.58964" lon="1.15052">
        <ele>281</ele>
        <time>2019-10-27T15:32:55+01:00</time>
      </trkpt>
      <trkpt lat="43.58972" lon="1.1506">
        <ele>282</ele>
        <time>2019-10-27T15:33:05+01:00</time>
      </trkpt>
      <trkpt lat="43.58981" lon="1.15056">
        <ele>285</ele>
        <time>2019-10-27T15:33:17+01:00</time>
      </trkpt>
      <trkpt lat="43.58988" lon="1.15066">
        <ele>285</ele>
        <time>2019-10-27T15:33:30+01:00</time>
      </trkpt>
      <trkpt lat="43.58998" lon="1.15069">
        <ele>284</ele>
        <time>2019-10-27T15:33:40+01:00</time>
      </trkpt>
      <trkpt lat="43.59007" lon="1.15073">
        <ele>286</ele>
        <time>2019-10-27T15:33:48+01:00</time>
      </trkpt>
      <trkpt lat="43.59016" lon="1.15075">
        <ele>289</ele>
        <time>2019-10-27T15:33:59+01:00</time>
      </trkpt>
      <trkpt lat="43.59025" lon="1.15082">
        <ele>293</ele>
        <time>2019-10-27T15:34:09+01:00</time>
      </trkpt>
      <trkpt lat="43.59035" lon="1.15084">
        <ele>297</ele>
        <time>2019-10-27T15:34:21+01:00</time>
      </trkpt>
      <trkpt lat="43.59041" lon="1.15093">
        <ele>296</ele>
        <time>2019-10-27T15:34:39+01:00</time>
      </trkpt>
      <trkpt lat="43.59038" lon="1.15106">
        <ele>296</ele>
        <time>2019-10-27T15:34:49+01:00</time>
      </trkpt>
      <trkpt lat="43.5904" lon="1.15118">
        <ele>295</ele>
        <time>2019-10-27T15:34:58+01:00</time>
      </trkpt>
      <trkpt lat="43.59036" lon="1.15132">
        <ele>294</ele>
        <time>2019-10-27T15:35:04+01:00</time>
      </trkpt>
      <trkpt lat="43.59032" lon="1.15143">
        <ele>294</ele>
        <time>2019-10-27T15:35:08+01:00</time>
      </trkpt>
      <trkpt lat="43.59026" lon="1.15154">
        <ele>294</ele>
        <time>2019-10-27T15:35:16+01:00</time>
      </trkpt>
      <trkpt lat="43.59027" lon="1.15168">
        <ele>295</ele>
        <time>2019-10-27T15:35:27+01:00</time>
      </trkpt>
      <trkpt lat="43.59022" lon="1.15179">
        <ele>294</ele>
        <time>2019-10-27T15:35:33+01:00</time>
      </trkpt>
      <trkpt lat="43.59019" lon="1.15192">
        <ele>294</ele>
        <time>2019-10-27T15:35:38+01:00</time>
      </trkpt>
      <trkpt lat="43.59023" lon="1.15205">
        <ele>295</ele>
        <time>2019-10-27T15:35:49+01:00</time>
      </trkpt>
      <trkpt lat="43.59024" lon="1.15218">
        <ele>296</ele>
        <time>2019-10-27T15:35:56+01:00</time>
      </trkpt>
      <trkpt lat="43.59027" lon="1.15232">
        <ele>293</ele>
        <time>2019-10-27T15:36:01+01:00</time>
      </trkpt>
      <trkpt lat="43.59022" lon="1.15243">
        <ele>293</ele>
        <time>2019-10-27T15:36:08+01:00</time>
      </trkpt>
      <trkpt lat="43.59018" lon="1.15256">
        <ele>293</ele>
        <time>2019-10-27T15:36:19+01:00</time>
      </trkpt>
      <trkpt lat="43.59015" lon="1.15269">
        <ele>294</ele>
        <time>2019-10-27T15:36:24+01:00</time>
      </trkpt>
      <trkpt lat="43.59018" lon="1.15282">
        <ele>294</ele>
        <time>2019-10-27T15:36:35+01:00</time>
      </trkpt>
    </trkseg>
  </trk>
</gpx>